M I D A S
Marine Information and Data Acquisition System
Tripno 417 of the Zeeleeuw from 2003-01-21 07:38:28 to 2003-01-21 20:26:47
Back to CruiseResearch ActivitiesStationsMapUnderway DataData graphs

EquipmentUnitsComment
TimeDGPSUTC
LatitudeDGPSDM.mWGS84
LongitudeDGPSDM.mWGS84
TemperatureSBE03/SBE38deg celciusITS90
ConductivitySBE21S/mITS90
SalinitySBE21 Practical Salinity Units
ChlorophylAChelsea fluorimeterg/lCalibrated in Aceton
Missing or incorrect values are displayed as -999
Sea surface data collected by the RV Zeeleeuw from 2003-01-21 07:38:28 to 2003-01-21 20:26:47
                                                                                    Next 1000 lines
Time Latitude Longitude Temperature Conductivity Salinity ChlorophylA
2003-01-21 07:38:38 51°13.688 2°55.787 11.751697 0.086396 0.493487  
2003-01-21 07:38:42 51°13.69 2°55.781 11.751697 0.086396 0.493487  
2003-01-21 07:38:48 51°13.692 2°55.773 11.722737 0.086292 0.49287  
2003-01-21 07:38:53 51°13.693 2°55.768 11.737447 0.086396 0.493479  
2003-01-21 07:38:58 51°13.694 2°55.763 11.73096 0.086396 0.493487  
2003-01-21 07:39:03 51°13.695 2°55.76 11.737264 0.086292 0.492862  
2003-01-21 07:39:08 51°13.696 2°55.757 11.741741 0.086396 0.493479  
2003-01-21 07:39:13 51°13.697 2°55.755 11.741741 0.086396 0.493479  
2003-01-21 07:39:18 51°13.698 2°55.753 11.741878 0.086396 0.493487  
2003-01-21 07:39:23 51°13.699 2°55.752 11.744983 0.086396 0.493479  
2003-01-21 07:39:28 51°13.7 2°55.751 11.745349 0.086292 0.492862  
2003-01-21 07:39:34 51°13.702 2°55.751 11.744481 0.086292 0.49287  
2003-01-21 07:39:39 51°13.703 2°55.752 11.748089 0.086292 0.492862  
2003-01-21 07:39:42 51°13.704 2°55.752 11.748089 0.086292 0.492862  
2003-01-21 07:39:48 51°13.707 2°55.753 11.746993 0.086396 0.493487  
2003-01-21 07:39:52 51°13.708 2°55.754 -999 0.086396 0.493479  
2003-01-21 07:39:58 51°13.711 2°55.755 -999 0.086292 0.492862  
2003-01-21 07:40:02 51°13.714 2°55.756 -999 0.086292 0.492862  
2003-01-21 07:40:08 51°13.718 2°55.756 -999 0.086292 0.49287  
2003-01-21 07:40:14 51°13.724 2°55.756 -999 0.086292 0.49287  
2003-01-21 07:40:18 51°13.728 2°55.755 -999 0.086292 0.49287  
2003-01-21 07:40:22 51°13.732 2°55.754 -999 0.086292 0.492879  
2003-01-21 07:40:28 51°13.739 2°55.75 -999 0.086292 0.492904  
2003-01-21 07:40:32 51°13.744 2°55.746 -999 0.086292 0.492904  
2003-01-21 07:40:38 51°13.75 2°55.74 -999 0.086396 0.493512  
2003-01-21 07:40:43 51°13.755 2°55.733 -999 0.086396 0.493512  
2003-01-21 07:40:48 51°13.76 2°55.726 -999 0.086292 0.492862  
2003-01-21 07:40:53 51°13.765 2°55.719 -999 0.086396 0.493428  
2003-01-21 07:40:58 51°13.77 2°55.711 -999 0.086396 0.493395  
2003-01-21 07:41:03 51°13.775 2°55.703 -999 0.086292 0.49277  
2003-01-21 07:41:08 51°13.78 2°55.695 -999 0.086292 0.492778  
2003-01-21 07:41:12 51°13.783 2°55.688 -999 0.086292 0.492778  
2003-01-21 07:41:18 51°13.789 2°55.679 -999 0.086292 0.492795  
2003-01-21 07:41:22 51°13.794 2°55.673 -999 0.086292 0.492828  
2003-01-21 07:41:28 51°13.8 2°55.663 -999 0.086396 0.493462  
2003-01-21 07:41:33 51°13.806 2°55.656 -999 0.086396 0.493479  
2003-01-21 07:41:38 51°13.812 2°55.649 -999 0.086396 0.493487  
2003-01-21 07:41:44 51°13.819 2°55.641 -999 0.086396 0.493487  
2003-01-21 07:47:14 51°14.328 2°55.096 7.160383 2.282976 22.627035 5.556118
2003-01-21 07:47:20 51°14.337 2°55.08 7.048146 2.290332 22.706276 5.623537
2003-01-21 07:47:26 51°14.345 2°55.064 7.048146 2.290332 22.706276 5.623537
2003-01-21 07:47:30 51°14.351 2°55.054 7.055854 2.287599 22.676622 5.657247
2003-01-21 07:47:34 51°14.356 2°55.043 7.073622 2.295481 22.756276 5.589828
2003-01-21 07:47:40 51°14.365 2°55.027 6.881782 2.293904 22.717975 5.522409
2003-01-21 07:47:44 51°14.37 2°55.017 7.497086 2.278036 22.52325 5.556118
2003-01-21 07:47:50 51°14.379 2°55.001 7.169155 2.268053 22.397281 5.421281
2003-01-21 07:47:54 51°14.386 2°54.99 7.169155 2.268053 22.397281 5.421281
2003-01-21 07:48:00 51°14.396 2°54.974 7.018533 2.261117 22.308502 5.45499
2003-01-21 07:48:04 51°14.404 2°54.963 7.544653 2.262483 22.314612 5.387571
2003-01-21 07:48:10 51°14.417 2°54.947 7.368734 2.256178 22.243697 5.387571
2003-01-21 07:48:14 51°14.426 2°54.937 7.421521 2.247036 22.141088 5.252734
2003-01-21 07:48:20 51°14.441 2°54.923 7.56438 2.241152 22.075945 5.117896
2003-01-21 07:48:25 51°14.454 2°54.912 7.56438 2.241152 22.075945 5.117896
2003-01-21 07:48:30 51°14.468 2°54.902 7.300892 2.247562 22.134761 5.050477
2003-01-21 07:48:36 51°14.483 2°54.887 6.806273 2.263849 22.281635 5.016768
2003-01-21 07:48:40 51°14.494 2°54.876 6.929218 2.266475 22.243511 4.747093
2003-01-21 07:48:44 51°14.504 2°54.865 7.028749 2.282237 22.348667 4.747093
2003-01-21 07:48:50 51°14.52 2°54.85 6.781972 2.301467 22.483038 4.814512
2003-01-21 07:48:54 51°14.53 2°54.839 6.781972 2.301467 22.483038 4.814512
2003-01-21 07:49:00 51°14.546 2°54.821 7.376013 2.314919 22.566576 5.252734
2003-01-21 07:49:05 51°14.558 2°54.804 6.897778 2.33226 22.779003 5.926922
2003-01-21 07:49:10 51°14.57 2°54.786 7.02202 2.468074 24.352436 6.668529
2003-01-21 07:49:14 51°14.58 2°54.772 7.107134 2.56439 25.53558 6.904494
2003-01-21 07:49:20 51°14.595 2°54.751 6.869868 2.655573 26.608553 7.073042
2003-01-21 07:49:25 51°14.607 2°54.733 6.869868 2.655573 26.608553 7.073042
2003-01-21 07:49:30 51°14.62 2°54.717 7.318201 2.677452 26.865718 7.14046
2003-01-21 07:49:36 51°14.636 2°54.698 7.515805 2.706274 27.18618 7.207879
2003-01-21 07:49:40 51°14.647 2°54.685 7.448314 2.754455 27.723728 7.005623
2003-01-21 07:49:45 51°14.66 2°54.669 7.342495 2.797485 28.219362 6.769657
2003-01-21 07:49:50 51°14.673 2°54.652 7.434553 2.81653 28.439199 6.769657
2003-01-21 07:49:54 51°14.684 2°54.639 7.434553 2.81653 28.439199 6.769657
2003-01-21 07:50:00 51°14.7 2°54.618 6.943186 2.830524 28.591266 6.5674
2003-01-21 07:50:04 51°14.711 2°54.605 6.713601 2.831155 28.570941 6.095469
2003-01-21 07:50:10 51°14.727 2°54.587 7.027521 2.81274 28.275606 5.825794
2003-01-21 07:50:14 51°14.739 2°54.575 7.157491 2.832416 28.462871 5.792084
2003-01-21 07:50:20 51°14.755 2°54.557 7.13597 2.888608 29.111562 5.690956
2003-01-21 07:50:24 51°14.766 2°54.544 7.13597 2.888608 29.111562 5.690956
2003-01-21 07:50:30 51°14.782 2°54.524 7.184982 2.925862 29.566423 5.657247
2003-01-21 07:50:34 51°14.792 2°54.51 7.209033 2.958804 29.935611 5.522409
2003-01-21 07:50:40 51°14.808 2°54.49 6.901026 2.9507 29.810496 5.353862
2003-01-21 07:50:45 51°14.822 2°54.475 7.332182 2.957856 29.864162 5.320153
2003-01-21 07:50:50 51°14.837 2°54.461 6.823718 2.969539 29.991331 5.185315
2003-01-21 07:50:54 51°14.849 2°54.45 6.823718 2.969539 29.991331 5.185315
2003-01-21 07:51:00 51°14.866 2°54.435 7.629366 3.002905 30.398149 5.050477
2003-01-21 07:51:04 51°14.878 2°54.425 7.02428 3.031221 30.747495 4.814512
2003-01-21 07:51:10 51°14.895 2°54.408 6.858346 3.035537 30.818947 4.713383
2003-01-21 07:51:14 51°14.906 2°54.397 6.888378 3.057327 31.07561 4.814512
2003-01-21 07:51:20 51°14.922 2°54.378 6.881536 3.042905 30.898447 4.679674
2003-01-21 07:51:25 51°14.936 2°54.364 6.881536 3.042905 30.898447 4.679674
2003-01-21 07:51:30 51°14.95 2°54.349 7.164745 3.033115 30.76159 4.578546
2003-01-21 07:51:35 51°14.964 2°54.336 7.236404 3.038484 30.809049 4.544836
2003-01-21 07:51:40 51°14.979 2°54.324 7.079168 3.053116 30.992262 4.511127
2003-01-21 07:51:44 51°14.99 2°54.314 7.10061 3.062169 31.109126 4.34258
2003-01-21 07:51:50 51°15.007 2°54.299 7.043923 3.072592 31.247997 4.409999
2003-01-21 07:51:54 51°15.019 2°54.287 7.043923 3.072592 31.247997 4.409999
2003-01-21 07:52:00 51°15.035 2°54.27 6.94535 3.075434 31.293711 4.376289
2003-01-21 07:52:05 51°15.049 2°54.255 7.117336 3.082277 31.377206 4.308871
2003-01-21 07:52:10 51°15.063 2°54.24 6.830172 3.089646 31.446354 4.308871
2003-01-21 07:52:16 51°15.079 2°54.223 6.59553 3.076381 31.278492 4.275161
2003-01-21 07:52:20 51°15.091 2°54.212 6.714489 3.072802 31.233414 4.308871
2003-01-21 07:52:25 51°15.105 2°54.198 6.714489 3.072802 31.233414 4.308871
2003-01-21 07:52:30 51°15.119 2°54.184 7.511175 3.088488 31.416264 4.34258
2003-01-21 07:52:34 51°15.131 2°54.173 6.739557 3.098489 31.547551 4.140324
2003-01-21 07:52:40 51°15.148 2°54.156 7.06788 3.084909 31.395469 4.005486
2003-01-21 07:52:45 51°15.163 2°54.143 7.315268 3.088383 31.434572 4.072905
2003-01-21 07:52:50 51°15.177 2°54.129 7.31209 3.107649 31.651542 4.039195
2003-01-21 07:52:54 51°15.189 2°54.117 7.31209 3.107649 31.651542 4.039195
2003-01-21 07:53:00 51°15.206 2°54.099 7.033316 3.101016 31.579274 3.971777
2003-01-21 07:53:04 51°15.217 2°54.086 7.915104 3.096173 31.52799 3.904358
2003-01-21 07:53:10 51°15.234 2°54.069 6.997309 3.110807 31.696146 3.870648
2003-01-21 07:53:14 51°15.246 2°54.057 7.039651 3.115545 31.75284 3.904358
2003-01-21 07:53:20 51°15.263 2°54.04 7.242865 3.10986 31.686285 3.80323
2003-01-21 07:53:25 51°15.278 2°54.026 7.242865 3.10986 31.686285 3.80323
2003-01-21 07:53:30 51°15.292 2°54.013 7.208788 3.114492 31.739327 3.702101
2003-01-21 07:53:34 51°15.304 2°54.002 7.133715 3.11365 31.725728 3.735811
2003-01-21 07:53:40 51°15.322 2°53.985 7.449582 3.114808 31.741246 3.634683
2003-01-21 07:53:44 51°15.333 2°53.973 6.972589 3.104701 31.620784 3.668392
2003-01-21 07:53:50 51°15.351 2°53.956 6.926513 3.119545 31.786444 3.533554
2003-01-21 07:53:54 51°15.363 2°53.945 6.926513 3.119545 31.786444 3.533554
2003-01-21 07:54:00 51°15.38 2°53.927 7.253339 3.120809 31.80151 3.533554
2003-01-21 07:54:04 51°15.392 2°53.916 7.329201 3.120598 31.796669 3.499845
2003-01-21 07:54:10 51°15.41 2°53.9 7.49538 3.106596 31.636409 3.466136
2003-01-21 07:54:14 51°15.421 2°53.888 7.017157 3.117229 31.75787 3.398717
2003-01-21 07:54:20 51°15.438 2°53.871 7.416835 3.104806 31.616247 3.365007
2003-01-21 07:54:25 51°15.452 2°53.855 7.416835 3.104806 31.616247 3.365007
2003-01-21 07:54:30 51°15.467 2°53.84 6.858592 3.105648 31.626552 3.398717
2003-01-21 07:54:34 51°15.478 2°53.828 6.761853 3.109544 31.668801 3.398717
2003-01-21 07:54:40 51°15.496 2°53.812 7.473729 3.114597 31.727384 3.331298
2003-01-21 07:54:44 51°15.508 2°53.801 7.388565 3.113965 31.718625 3.263879
2003-01-21 07:54:50 51°15.526 2°53.786 7.02983 3.116071 31.739893 3.331298
2003-01-21 07:54:55 51°15.541 2°53.772 7.02983 3.116071 31.739893 3.331298
2003-01-21 07:55:00 51°15.556 2°53.759 7.078334 3.111754 31.692073 3.297589
2003-01-21 07:55:04 51°15.567 2°53.747 6.98527 3.126915 31.861306 3.263879
2003-01-21 07:55:10 51°15.584 2°53.729 7.744814 3.130073 31.892798 3.263879
2003-01-21 07:55:15 51°15.597 2°53.715 6.905849 3.114807 31.716637 3.23017
2003-01-21 07:55:20 51°15.611 2°53.7 6.869179 3.121861 31.795293 3.162751
2003-01-21 07:55:25 51°15.624 2°53.686 6.869179 3.121861 31.795293 3.162751
2003-01-21 07:55:30 51°15.637 2°53.673 6.746661 3.121124 31.785346 3.19646
2003-01-21 07:55:35 51°15.65 2°53.66 6.876465 3.112386 31.686903 3.162751
2003-01-21 07:55:40 51°15.664 2°53.649 6.469411 3.116492 31.734794 3.129042
2003-01-21 07:55:44 51°15.674 2°53.64 7.239341 3.132811 31.919539 3.061623
2003-01-21 07:55:50 51°15.69 2°53.628 7.432357 3.123019 31.811633 3.095332
2003-01-21 07:55:54 51°15.701 2°53.622 7.432357 3.123019 31.811633 3.095332
2003-01-21 07:56:00 51°15.717 2°53.616 6.844458 3.130073 31.890325 3.162751
2003-01-21 07:56:04 51°15.728 2°53.615 7.778802 3.12881 31.874434 3.027913
2003-01-21 07:56:10 51°15.743 2°53.617 7.344988 3.125441 31.835635 3.027913
2003-01-21 07:56:14 51°15.752 2°53.619 7.353686 3.133653 31.924086 3.19646
2003-01-21 07:56:20 51°15.765 2°53.624 7.708185 3.12344 31.807337 3.061623
2003-01-21 07:56:25 51°15.774 2°53.63 7.708185 3.12344 31.807337 3.061623
2003-01-21 07:56:30 51°15.783 2°53.637 7.244676 3.131021 31.88947 3.162751
2003-01-21 07:56:36 51°15.793 2°53.645 7.319277 3.11607 31.698105 3.23017
2003-01-21 07:56:40 51°15.799 2°53.651 7.361308 3.06101 30.987307 3.162751
2003-01-21 07:56:46 51°15.809 2°53.659 7.867521 3.044167 30.739588 3.23017
2003-01-21 07:56:50 51°15.814 2°53.665 7.748602 3.052694 30.854571 3.095332
2003-01-21 07:56:54 51°15.82 2°53.67 7.748602 3.052694 30.854571 3.095332
2003-01-21 07:57:00 51°15.829 2°53.68 7.536857 3.090803 31.323375 3.162751
2003-01-21 07:57:05 51°15.836 2°53.687 7.567303 3.108911 31.576797 3.129042
2003-01-21 07:57:10 51°15.842 2°53.694 6.818446 3.118281 31.716439 3.061623
2003-01-21 07:57:14 51°15.847 2°53.7 6.633494 3.116808 31.717043 3.129042
2003-01-21 07:57:20 51°15.855 2°53.709 8.117495 3.117229 31.730798 3.095332
2003-01-21 07:57:26 51°15.863 2°53.718 8.117495 3.117229 31.730798 3.095332
2003-01-21 07:57:30 51°15.868 2°53.724 7.212902 3.120703 31.778137 3.129042
2003-01-21 07:57:34 51°15.873 2°53.73 7.578357 3.118703 31.761345 3.129042
2003-01-21 07:57:40 51°15.88 2°53.738 7.297713 3.120493 31.779049 3.129042
2003-01-21 07:57:46 51°15.888 2°53.745 6.871345 3.11944 31.767187 3.061623
2003-01-21 07:57:50 51°15.893 2°53.75 7.624208 3.113965 31.673592 3.061623
2003-01-21 07:57:54 51°15.899 2°53.754 7.624208 3.113965 31.673592 3.061623
2003-01-21 07:58:00 51°15.907 2°53.761 7.224066 3.053536 30.903678 3.095332
2003-01-21 07:58:04 51°15.912 2°53.766 7.361064 3.050588 30.840558 2.960494
2003-01-21 07:58:10 51°15.919 2°53.774 7.589214 3.078801 31.193717 2.960494
2003-01-21 07:58:14 51°15.924 2°53.779 7.560046 3.093961 31.410505 2.960494
2003-01-21 07:58:20 51°15.931 2°53.788 6.926267 3.105226 31.565505 2.926785
2003-01-21 07:58:25 51°15.937 2°53.795 6.926267 3.105226 31.565505 2.926785
2003-01-21 07:58:30 51°15.942 2°53.802 7.037147 3.101015 31.527105 2.859366
2003-01-21 07:58:35 51°15.948 2°53.81 6.747845 3.100068 31.5254 2.893076
2003-01-21 07:58:40 51°15.953 2°53.817 7.176849 3.105016 31.585958 2.859366
2003-01-21 07:58:44 51°15.957 2°53.823 6.862088 3.103121 31.56056 2.994204
2003-01-21 07:58:50 51°15.964 2°53.831 7.556344 3.094172 31.458282 2.893076
2003-01-21 07:58:54 51°15.969 2°53.836 7.556344 3.094172 31.458282 2.893076
2003-01-21 07:59:00 51°15.975 2°53.844 7.01421 3.105648 31.595514 2.893076
2003-01-21 07:59:04 51°15.98 2°53.85 7.648144 3.103858 31.582714 2.926785
2003-01-21 07:59:10 51°15.987 2°53.858 7.256961 3.1047 31.593826 2.859366
2003-01-21 07:59:14 51°15.991 2°53.863 6.848349 3.103121 31.576866 2.893076
2003-01-21 07:59:20 51°15.998 2°53.871 7.489968 3.113334 31.70331 2.926785
2003-01-21 07:59:25 51°16.004 2°53.877 7.489968 3.113334 31.70331 2.926785
2003-01-21 07:59:30 51°16.009 2°53.885 7.042057 3.112807 31.703116 2.926785
2003-01-21 07:59:34 51°16.014 2°53.89 7.370542 3.113123 31.709953 2.859366
2003-01-21 07:59:40 51°16.02 2°53.898 7.043039 3.115439 31.739338 2.960494
2003-01-21 07:59:44 51°16.024 2°53.902 7.00011 3.115123 31.739881 2.926785
2003-01-21 07:59:50 51°16.031 2°53.91 7.163618 3.119651 31.790919 3.061623
2003-01-21 07:59:54 51°16.036 2°53.916 7.163618 3.119651 31.790919 3.061623
2003-01-21 08:00:00 51°16.043 2°53.925 7.149403 3.119756 31.794573 2.960494
2003-01-21 08:00:04 51°16.048 2°53.931 7.236991 3.118282 31.782063 2.893076
2003-01-21 08:00:10 51°16.056 2°53.94 6.992051 3.113229 31.727545 2.960494
2003-01-21 08:00:14 51°16.061 2°53.947 7.030517 3.123125 31.8408 2.960494
2003-01-21 08:00:20 51°16.069 2°53.957 7.314485 3.118808 31.793756 2.960494
2003-01-21 08:00:25 51°16.075 2°53.965 7.314485 3.118808 31.793756 2.960494
2003-01-21 08:00:30 51°16.081 2°53.974 6.856672 3.118177 31.792388 2.994204
2003-01-21 08:00:35 51°16.087 2°53.982 7.109096 3.123441 31.852603 2.994204
2003-01-21 08:00:40 51°16.092 2°53.99 7.222108 3.122072 31.838807 3.027913
2003-01-21 08:00:45 51°16.097 2°53.998 7.058455 3.117019 31.785082 2.994204
2003-01-21 08:00:50 51°16.101 2°54.006 6.851993 3.115545 31.768453 3.129042
2003-01-21 08:00:55 51°16.106 2°54.014 6.851993 3.115545 31.768453 3.129042
2003-01-21 08:01:00 51°16.11 2°54.022 7.299865 3.114492 31.75822 3.061623
2003-01-21 08:01:04 51°16.113 2°54.028 7.088786 3.118914 31.809756 3.129042
2003-01-21 08:01:10 51°16.117 2°54.037 7.124398 3.111123 31.723501 3.095332
2003-01-21 08:01:15 51°16.121 2°54.044 6.968508 3.115229 31.773113 3.162751
2003-01-21 08:01:20 51°16.124 2°54.05 6.761113 3.113018 31.746523 3.19646
2003-01-21 08:01:26 51°16.129 2°54.058 6.761113 3.113018 31.746523 3.19646
2003-01-21 08:01:30 51°16.131 2°54.063 7.886616 3.112808 31.752367 3.365007
2003-01-21 08:01:35 51°16.135 2°54.068 6.839236 3.112913 31.752733 3.297589
2003-01-21 08:01:40 51°16.139 2°54.074 6.559026 3.11186 31.746606 3.331298
2003-01-21 08:01:45 51°16.142 2°54.08 7.321966 3.114913 31.783537 3.398717
2003-01-21 08:01:50 51°16.146 2°54.085 6.919675 3.114071 31.775675 3.398717
2003-01-21 08:01:54 51°16.148 2°54.09 6.919675 3.114071 31.775675 3.398717
2003-01-21 08:02:00 51°16.152 2°54.096 6.554227 3.115335 31.792409 3.466136
2003-01-21 08:02:04 51°16.155 2°54.101 7.199139 3.116177 31.805214 3.432426
2003-01-21 08:02:10 51°16.158 2°54.108 6.514235 3.102596 31.651901 3.499845
2003-01-21 08:02:16 51°16.161 2°54.114 6.999029 3.111229 31.747699 3.533554
2003-01-21 08:02:20 51°16.163 2°54.119 7.159403 3.112071 31.757207 3.499845
2003-01-21 08:02:26 51°16.166 2°54.127 7.159403 3.112071 31.757207 3.499845
2003-01-21 08:02:30 51°16.167 2°54.132 7.042254 3.110808 31.745412 3.432426
2003-01-21 08:02:34 51°16.169 2°54.137 6.19219 3.11344 31.779245 3.600973
2003-01-21 08:02:40 51°16.171 2°54.144 6.917854 3.111229 31.753457 3.533554
2003-01-21 08:02:45 51°16.173 2°54.15 6.956807 3.11344 31.776775 3.600973
2003-01-21 08:02:50 51°16.175 2°54.155 7.279908 3.110386 31.743125 3.600973
2003-01-21 08:02:55 51°16.177 2°54.16 7.279908 3.110386 31.743125 3.600973
2003-01-21 08:03:00 51°16.179 2°54.166 7.118808 3.103227 31.66149 3.533554
2003-01-21 08:03:04 51°16.18 2°54.171 7.116012 3.112808 31.770465 3.600973
2003-01-21 08:03:10 51°16.183 2°54.177 7.198992 3.10986 31.740471 3.567264
2003-01-21 08:03:15 51°16.184 2°54.183 6.83569 3.108491 31.720086 3.634683
2003-01-21 08:03:20 51°16.186 2°54.188 6.874201 3.107439 31.710667 3.702101
2003-01-21 08:03:24 51°16.188 2°54.192 6.874201 3.107439 31.710667 3.702101
2003-01-21 08:03:30 51°16.191 2°54.197 6.712811 3.117124 31.821685 3.600973
2003-01-21 08:03:36 51°16.193 2°54.202 6.767968 3.113229 31.777691 3.567264
2003-01-21 08:03:40 51°16.195 2°54.205 6.996818 3.113124 31.778149 3.600973
2003-01-21 08:03:45 51°16.198 2°54.208 6.79331 3.104386 31.677844 3.567264
2003-01-21 08:03:50 51°16.2 2°54.211 6.556553 3.110071 31.743671 3.567264
2003-01-21 08:03:55 51°16.203 2°54.215 6.556553 3.110071 31.743671 3.567264
2003-01-21 08:04:00 51°16.206 2°54.218 6.509333 3.111966 31.766717 3.668392
2003-01-21 08:04:04 51°16.209 2°54.22 7.476509 3.113229 31.781808 3.533554
2003-01-21 08:04:10 51°16.213 2°54.223 6.630331 3.108281 31.721819 3.567264
2003-01-21 08:04:14 51°16.215 2°54.225 6.994361 3.104596 31.684326 3.533554
2003-01-21 08:04:20 51°16.22 2°54.227 6.917264 3.10049 31.638796 3.567264
2003-01-21 08:04:25 51°16.223 2°54.229 6.917264 3.10049 31.638796 3.567264
2003-01-21 08:04:30 51°16.227 2°54.232 7.31605 3.104596 31.683504 3.634683
2003-01-21 08:04:35 51°16.231 2°54.234 6.795036 3.099227 31.623717 3.567264
2003-01-21 08:04:40 51°16.234 2°54.237 6.674301 3.100174 31.635231 3.499845
2003-01-21 08:04:45 51°16.237 2°54.239 6.873314 3.114387 31.796536 3.634683
2003-01-21 08:04:50 51°16.24 2°54.242 6.801049 3.111966 31.76754 3.600973
2003-01-21 08:04:54 51°16.242 2°54.244 6.801049 3.111966 31.76754 3.600973
2003-01-21 08:05:00 51°16.245 2°54.247 6.893841 3.111334 31.760406 3.702101
2003-01-21 08:05:04 51°16.247 2°54.249 6.752679 3.113755 31.787754 3.668392
2003-01-21 08:05:10 51°16.25 2°54.252 7.079413 3.10965 31.739738 3.702101
2003-01-21 08:05:14 51°16.251 2°54.255 7.033955 3.109228 31.736628 3.668392
2003-01-21 08:05:20 51°16.253 2°54.259 7.108949 3.103438 31.670431 3.668392
2003-01-21 08:05:25 51°16.254 2°54.263 7.108949 3.103438 31.670431 3.668392
2003-01-21 08:05:30 51°16.255 2°54.266 7.192869 3.10407 31.67592 3.735811
2003-01-21 08:05:34 51°16.256 2°54.269 6.711182 3.10428 31.677476 3.634683
2003-01-21 08:05:40 51°16.256 2°54.273 6.869573 3.10607 31.700966 3.600973
2003-01-21 08:05:44 51°16.257 2°54.275 6.947809 3.11544 31.803483 3.634683
2003-01-21 08:05:50 51°16.257 2°54.279 6.986056 3.110071 31.746139 3.600973
2003-01-21 08:05:54 51°16.257 2°54.281 6.986056 3.110071 31.746139 3.600973
2003-01-21 08:06:00 51°16.257 2°54.284 7.071708 3.102596 31.663385 3.533554
2003-01-21 08:06:05 51°16.257 2°54.287 7.227249 3.109018 31.738363 3.600973
2003-01-21 08:06:10 51°16.257 2°54.29 6.298594 3.11186 31.768821 3.567264
2003-01-21 08:06:14 51°16.257 2°54.292 6.745082 3.104701 31.688799 3.600973
2003-01-21 08:06:20 51°16.256 2°54.295 6.904323 3.105754 31.703151 3.466136
2003-01-21 08:06:24 51°16.256 2°54.297 6.904323 3.105754 31.703151 3.466136
2003-01-21 08:06:30 51°16.255 2°54.299 7.184933 3.113966 31.796724 3.634683
2003-01-21 08:06:34 51°16.255 2°54.3 6.823225 3.099438 31.632652 3.567264
2003-01-21 08:06:40 51°16.254 2°54.302 6.702099 3.106702 31.715495 3.567264
2003-01-21 08:06:46 51°16.253 2°54.303 7.104976 3.09849 31.622775 3.499845
2003-01-21 08:06:50 51°16.253 2°54.304 6.905357 3.110281 31.756747 3.533554
2003-01-21 08:06:54 51°16.253 2°54.305 6.905357 3.110281 31.756747 3.533554
2003-01-21 08:07:00 51°16.252 2°54.306 6.902749 3.104491 31.693814 3.466136
2003-01-21 08:07:05 51°16.252 2°54.307 6.942547 3.111545 31.774312 3.634683
2003-01-21 08:07:10 51°16.251 2°54.308 6.982222 3.100701 31.651837 3.466136
2003-01-21 08:07:14 51°16.251 2°54.309 6.901125 3.10407 31.68988 3.600973
2003-01-21 08:07:20 51°16.25 2°54.309 6.621138 3.105544 31.707348 3.600973
2003-01-21 08:07:26 51°16.25 2°54.31 6.621138 3.105544 31.707348 3.600973
2003-01-21 08:07:30 51°16.25 2°54.311 6.863122 3.102385 31.674142 3.567264
2003-01-21 08:07:34 51°16.249 2°54.311 7.463876 3.107755 31.735612 3.466136
2003-01-21 08:07:40 51°16.249 2°54.312 7.264105 3.100701 31.654298 3.567264
2003-01-21 08:07:44 51°16.249 2°54.312 6.740987 3.109755 31.756563 3.533554
2003-01-21 08:07:50 51°16.248 2°54.313 7.023445 3.100912 31.655855 3.533554
2003-01-21 08:07:54 51°16.248 2°54.313 7.023445 3.100912 31.655855 3.533554
2003-01-21 08:08:00 51°16.247 2°54.313 6.578567 3.105649 31.710182 3.499845
2003-01-21 08:08:05 51°16.247 2°54.313 7.023199 3.101648 31.663357 3.600973
2003-01-21 08:08:10 51°16.247 2°54.314 7.064002 3.10049 31.652741 3.533554
2003-01-21 08:08:14 51°16.247 2°54.314 7.185276 3.105123 31.704236 3.600973
2003-01-21 08:08:20 51°16.246 2°54.314 7.065033 3.100912 31.655855 3.702101
2003-01-21 08:08:25 51°16.246 2°54.314 7.065033 3.100912 31.655855 3.702101
2003-01-21 08:08:30 51°16.246 2°54.314 7.306613 3.108281 31.740735 3.668392
2003-01-21 08:08:34 51°16.245 2°54.314 7.182973 3.109439 31.754642 3.634683
2003-01-21 08:08:40 51°16.245 2°54.313 6.901272 3.105333 31.707436 3.567264
2003-01-21 08:08:45 51°16.245 2°54.313 7.052024 3.109229 31.753086 3.567264
2003-01-21 08:08:50 51°16.245 2°54.313 7.184786 3.107334 31.729209 3.499845
2003-01-21 08:08:54 51°16.244 2°54.313 7.184786 3.107334 31.729209 3.499845
2003-01-21 08:09:00 51°16.244 2°54.312 7.26528 3.106491 31.720517 3.533554
2003-01-21 08:09:05 51°16.243 2°54.312 6.945006 3.111018 31.770013 3.600973
2003-01-21 08:09:10 51°16.243 2°54.312 7.02315 3.108176 31.738723 3.668392
2003-01-21 08:09:15 51°16.243 2°54.311 6.702692 3.109334 31.754276 3.567264
2003-01-21 08:09:20 51°16.242 2°54.311 6.945498 3.109018 31.749884 3.600973
2003-01-21 08:09:25 51°16.242 2°54.31 6.945498 3.109018 31.749884 3.600973
2003-01-21 08:09:30 51°16.242 2°54.31 6.700322 3.105017 31.703869 3.702101
2003-01-21 08:09:34 51°16.241 2°54.309 6.660273 3.107123 31.728476 3.567264
2003-01-21 08:09:40 51°16.241 2°54.309 7.543142 3.104491 31.698745 3.600973
2003-01-21 08:09:45 51°16.241 2°54.308 6.901912 3.110913 31.769647 3.634683
2003-01-21 08:09:50 51°16.241 2°54.308 6.900731 3.111124 31.772026 3.567264
2003-01-21 08:09:54 51°16.24 2°54.307 6.900731 3.111124 31.772026 3.567264
2003-01-21 08:10:00 51°16.24 2°54.306 7.106595 3.11165 31.777973 3.567264
2003-01-21 08:10:05 51°16.24 2°54.306 6.823225 3.102175 31.670122 3.668392
2003-01-21 08:10:10 51°16.24 2°54.305 6.66141 3.105333 31.709903 3.634683
2003-01-21 08:10:14 51°16.24 2°54.305 7.505471 3.101649 31.668283 3.533554
2003-01-21 08:10:20 51°16.239 2°54.304 6.902257 3.107018 31.726464 3.600973
2003-01-21 08:10:24 51°16.239 2°54.303 6.902257 3.107018 31.726464 3.600973
2003-01-21 08:10:30 51°16.239 2°54.302 7.024132 3.103859 31.692432 3.600973
2003-01-21 08:10:34 51°16.239 2°54.302 7.06464 3.109439 31.753818 3.634683
2003-01-21 08:10:40 51°16.238 2°54.301 6.782465 3.111018 31.773308 3.735811
2003-01-21 08:10:45 51°16.238 2°54.3 7.023052 3.110071 31.760131 3.600973
2003-01-21 08:10:50 51°16.238 2°54.299 6.982075 3.105965 31.716216 3.600973
2003-01-21 08:10:54 51°16.238 2°54.299 6.982075 3.105965 31.716216 3.600973
2003-01-21 08:11:00 51°16.238 2°54.298 7.384511 3.107649 31.731954 3.567264
2003-01-21 08:11:06 51°16.238 2°54.297 7.183463 3.104912 31.705146 3.634683
2003-01-21 08:11:10 51°16.238 2°54.296 6.783106 3.10586 31.715027 3.533554
2003-01-21 08:11:14 51°16.238 2°54.296 6.740346 3.104386 31.697556 3.600973
2003-01-21 08:11:20 51°16.238 2°54.295 6.862581 3.107755 31.738903 3.567264
2003-01-21 08:11:25 51°16.237 2°54.294 6.862581 3.107755 31.738903 3.567264
2003-01-21 08:11:30 51°16.237 2°54.293 7.305146 3.099543 31.642862 3.567264
2003-01-21 08:11:34 51°16.237 2°54.292 6.862778 3.101754 31.665366 3.567264
2003-01-21 08:11:40 51°16.237 2°54.291 6.78064 3.102596 31.678163 3.600973
2003-01-21 08:11:44 51°16.237 2°54.291 6.577825 3.101859 31.672303 3.567264
2003-01-21 08:11:50 51°16.236 2°54.29 7.141265 3.109439 31.757935 3.600973
2003-01-21 08:11:54 51°16.236 2°54.289 7.141265 3.109439 31.757935 3.600973
2003-01-21 08:12:00 51°16.236 2°54.288 6.577528 3.106597 31.724174 3.567264
2003-01-21 08:12:04 51°16.236 2°54.288 6.82288 3.101438 31.663442 3.533554
2003-01-21 08:12:10 51°16.236 2°54.287 7.304315 3.099964 31.648438 3.634683
2003-01-21 08:12:14 51°16.235 2°54.286 7.022217 3.105017 31.707979 3.533554
2003-01-21 08:12:20 51°16.235 2°54.285 6.618865 3.102596 31.680627 3.499845
2003-01-21 08:12:25 51°16.235 2°54.284 6.618865 3.102596 31.680627 3.499845
2003-01-21 08:12:30 51°16.235 2°54.283 7.182238 3.104912 31.70679 3.499845
2003-01-21 08:12:34 51°16.235 2°54.283 6.822683 3.109018 31.751531 3.499845
2003-01-21 08:12:40 51°16.235 2°54.282 6.941318 3.108176 31.743661 3.533554
2003-01-21 08:12:44 51°16.235 2°54.281 6.820663 3.107334 31.731677 3.567264
2003-01-21 08:12:50 51°16.234 2°54.28 7.4629 3.101017 31.66197 3.567264
2003-01-21 08:12:54 51°16.234 2°54.279 7.4629 3.101017 31.66197 3.567264
2003-01-21 08:13:00 51°16.234 2°54.278 7.142344 3.106491 31.722985 3.567264
2003-01-21 08:13:05 51°16.234 2°54.277 7.141413 3.107755 31.738903 3.567264
2003-01-21 08:13:10 51°16.234 2°54.276 7.26205 3.105123 31.707524 3.567264
2003-01-21 08:13:14 51°16.234 2°54.275 7.103308 3.10049 31.657666 3.567264
2003-01-21 08:13:20 51°16.233 2°54.274 6.981043 3.097859 31.624661 3.567264
2003-01-21 08:13:25 51°16.233 2°54.273 6.981043 3.097859 31.624661 3.567264
2003-01-21 08:13:30 51°16.233 2°54.272 6.818347 3.101964 31.673492 3.466136
2003-01-21 08:13:35 51°16.233 2°54.272 6.699137 3.098701 31.635812 3.567264
2003-01-21 08:13:40 51°16.233 2°54.271 7.263322 3.098385 31.632246 3.533554
2003-01-21 08:13:45 51°16.233 2°54.27 6.942891 3.109229 31.755556 3.567264
2003-01-21 08:13:50 51°16.232 2°54.269 6.940383 3.101333 31.668821 3.567264
2003-01-21 08:13:55 51°16.232 2°54.269 6.940383 3.101333 31.668821 3.567264
2003-01-21 08:14:00 51°16.232 2°54.268 6.820121 3.102491 31.68026 3.499845
2003-01-21 08:14:04 51°16.232 2°54.268 6.780295 3.103859 31.695719 3.567264
2003-01-21 08:14:10 51°16.232 2°54.267 6.860266 3.10407 31.696454 3.533554
2003-01-21 08:14:14 51°16.232 2°54.267 6.858346 3.105017 31.708802 3.600973
2003-01-21 08:14:20 51°16.232 2°54.267 6.900288 3.106913 31.733502 3.533554
2003-01-21 08:14:25 51°16.231 2°54.267 6.900288 3.106913 31.733502 3.533554
2003-01-21 08:14:30 51°16.231 2°54.267 6.940383 3.097332 31.621177 3.567264
2003-01-21 08:14:34 51°16.231 2°54.267 7.181895 3.101649 31.670746 3.567264
2003-01-21 08:14:40 51°16.231 2°54.267 7.624063 3.103544 31.690508 3.533554
2003-01-21 08:14:45 51°16.23 2°54.267 6.941219 3.101543 31.6712 3.600973
2003-01-21 08:14:50 51°16.23 2°54.267 7.222646 3.105754 31.718772 3.533554
2003-01-21 08:14:55 51°16.23 2°54.268 7.222646 3.105754 31.718772 3.533554
2003-01-21 08:15:00 51°16.23 2°54.268 7.061204 3.102912 31.68666 3.499845
2003-01-21 08:15:05 51°16.23 2°54.268 6.941023 3.103438 31.693428 3.533554
2003-01-21 08:15:11 51°16.229 2°54.269 6.940334 3.102807 31.683006 3.600973
2003-01-21 08:15:15 51°16.229 2°54.269 6.939695 3.103333 31.688951 3.600973
2003-01-21 08:15:21 51°16.229 2°54.269 6.69662 3.102386 31.679892 3.533554
2003-01-21 08:15:25 51°16.228 2°54.27 6.69662 3.102386 31.679892 3.533554
2003-01-21 08:15:29 51°16.228 2°54.27 7.061106 3.097543 31.624375 3.533554
2003-01-21 08:15:35 51°16.228 2°54.27 6.778471 3.100069 31.656194 3.567264
2003-01-21 08:15:41 51°16.228 2°54.271 7.09904 3.095332 31.59941 3.499845
2003-01-21 08:15:46 51°16.227 2°54.271 7.419911 3.098911 31.643934 3.499845
2003-01-21 08:15:51 51°16.227 2°54.271 6.657013 3.103859 31.696541 3.567264
2003-01-21 08:15:55 51°16.227 2°54.271 6.657013 3.103859 31.696541 3.567264
2003-01-21 08:16:01 51°16.227 2°54.272 7.179936 3.097437 31.625646 3.533554
2003-01-21 08:16:06 51°16.227 2°54.272 6.858494 3.096279 31.609289 3.499845
2003-01-21 08:16:11 51°16.226 2°54.272 6.796564 3.105754 31.718772 3.533554
2003-01-21 08:16:15 51°16.226 2°54.272 6.980011 3.095964 31.610641 3.600973
2003-01-21 08:16:21 51°16.226 2°54.272 6.860562 3.098596 31.638725 3.499845
2003-01-21 08:16:25 51°16.226 2°54.273 6.860562 3.098596 31.638725 3.499845
2003-01-21 08:16:31 51°16.226 2°54.273 6.818002 3.100912 31.66735 3.600973
2003-01-21 08:16:35 51°16.226 2°54.273 7.058455 3.095964 31.609001 3.600973
2003-01-21 08:16:41 51°16.225 2°54.273 6.736991 3.105333 31.711547 3.634683
2003-01-21 08:16:45 51°16.225 2°54.273 7.260142 3.104912 31.704324 3.567264
2003-01-21 08:16:51 51°16.225 2°54.273 6.89832 3.095858 31.602895 3.634683
2003-01-21 08:16:55 51°16.225 2°54.273 6.89832 3.095858 31.602895 3.634683
2003-01-21 08:17:01 51°16.225 2°54.273 6.330182 3.095542 31.599329 3.499845
2003-01-21 08:17:05 51°16.225 2°54.273 6.97888 3.097122 31.61798 3.634683
2003-01-21 08:17:11 51°16.225 2°54.273 6.777781 3.105017 31.705513 3.600973
2003-01-21 08:17:15 51°16.225 2°54.273 7.017108 3.103544 31.690508 3.634683
2003-01-21 08:17:21 51°16.225 2°54.273 7.297957 3.101438 31.669189 3.567264
2003-01-21 08:17:25 51°16.225 2°54.273 7.297957 3.101438 31.669189 3.567264
2003-01-21 08:17:31 51°16.225 2°54.273 7.016175 3.094806 31.595924 3.567264
2003-01-21 08:17:35 51°16.225 2°54.272 6.574164 3.097964 31.629951 3.466136
2003-01-21 08:17:41 51°16.225 2°54.272 6.616739 3.103228 31.692693 3.600973
2003-01-21 08:17:45 51°16.225 2°54.272 6.734919 3.098806 31.643565 3.567264
2003-01-21 08:17:51 51°16.225 2°54.272 6.493288 3.094911 31.599571 3.634683
2003-01-21 08:17:56 51°16.225 2°54.272 6.493288 3.094911 31.599571 3.634683
2003-01-21 08:18:01 51°16.225 2°54.272 6.855342 3.095016 31.599121 3.533554
2003-01-21 08:18:05 51°16.225 2°54.272 6.815095 3.105649 31.721696 3.499845
2003-01-21 08:18:11 51°16.225 2°54.272 6.611845 3.10207 31.680432 3.533554
2003-01-21 08:18:16 51°16.225 2°54.272 6.655383 3.095964 31.609821 3.634683
2003-01-21 08:18:21 51°16.225 2°54.272 7.060174 3.096595 31.618595 3.702101
2003-01-21 08:18:25 51°16.225 2°54.272 7.060174 3.096595 31.618595 3.702101
2003-01-21 08:18:31 51°16.224 2°54.272 7.180278 3.099859 31.655457 3.600973
2003-01-21 08:18:36 51°16.224 2°54.272 7.498841 3.10207 31.680432 3.634683
2003-01-21 08:18:41 51°16.224 2°54.272 7.097813 3.096069 31.61429 3.634683
2003-01-21 08:18:45 51°16.224 2°54.272 6.896253 3.097859 31.633684 3.567264
2003-01-21 08:18:51 51°16.224 2°54.272 7.257842 3.096701 31.620604 3.567264
2003-01-21 08:18:55 51°16.224 2°54.273 7.257842 3.096701 31.620604 3.567264
2003-01-21 08:19:01 51°16.224 2°54.273 6.855539 3.103544 31.698728 3.600973
2003-01-21 08:19:05 51°16.224 2°54.273 7.056786 3.099227 31.646681 3.702101
2003-01-21 08:19:11 51°16.224 2°54.273 7.337363 3.10607 31.724809 3.634683
2003-01-21 08:19:15 51°16.224 2°54.273 6.895121 3.102386 31.685644 3.634683
2003-01-21 08:19:21 51°16.224 2°54.273 6.772554 3.103228 31.694337 3.567264
2003-01-21 08:19:26 51°16.224 2°54.273 6.772554 3.103228 31.694337 3.567264
2003-01-21 08:19:31 51°16.224 2°54.274 6.853963 3.10607 31.726455 3.634683
2003-01-21 08:19:35 51°16.224 2°54.274 6.854849 3.104175 31.70422 3.600973
2003-01-21 08:19:41 51°16.224 2°54.274 7.138618 3.095964 31.614741 3.634683
2003-01-21 08:19:45 51°16.224 2°54.274 6.974899 3.097332 31.626918 3.634683
2003-01-21 08:19:51 51°16.224 2°54.274 6.65227 3.100912 31.66735 3.499845
2003-01-21 08:19:55 51°16.224 2°54.274 6.65227 3.100912 31.66735 3.499845
2003-01-21 08:20:01 51°16.224 2°54.274 7.058701 3.095648 31.610353 3.668392
2003-01-21 08:20:05 51°16.224 2°54.274 6.491158 3.099964 31.65911 3.634683
2003-01-21 08:20:11 51°16.224 2°54.274 7.01647 3.097543 31.630937 3.668392
2003-01-21 08:20:16 51°16.224 2°54.274 6.894629 3.096911 31.622982 3.668392
2003-01-21 08:20:21 51°16.224 2°54.275 6.975882 3.097122 31.627821 3.567264
2003-01-21 08:20:25 51°16.224 2°54.275 6.975882 3.097122 31.627821 3.567264
2003-01-21 08:20:31 51°16.224 2°54.275 6.571196 3.095964 31.613921 3.634683
2003-01-21 08:20:35 51°16.224 2°54.275 7.016077 3.107123 31.739997 3.600973
2003-01-21 08:20:41 51°16.224 2°54.275 6.531809 3.106491 31.733682 3.634683
2003-01-21 08:20:45 51°16.224 2°54.275 6.854308 3.10407 31.704675 3.600973
2003-01-21 08:20:51 51°16.224 2°54.275 6.612389 3.104281 31.709522 3.634683
2003-01-21 08:20:55 51°16.223 2°54.275 6.612389 3.104281 31.709522 3.634683
2003-01-21 08:21:01 51°16.224 2°54.275 6.370192 3.104596 31.713913 3.668392
2003-01-21 08:21:05 51°16.224 2°54.275 6.776597 3.107018 31.739631 3.702101
2003-01-21 08:21:11 51°16.223 2°54.275 6.494625 3.106386 31.730846 3.76952
2003-01-21 08:21:15 51°16.223 2°54.275 7.137785 3.107228 31.741187 3.76952
2003-01-21 08:21:21 51°16.224 2°54.275 6.935465 3.105965 31.727734 3.702101
2003-01-21 08:21:25 51°16.224 2°54.275 6.935465 3.105965 31.727734 3.702101
2003-01-21 08:21:31 51°16.224 2°54.275 6.814996 3.107123 31.740821 3.668392
2003-01-21 08:21:35 51°16.224 2°54.275 7.015929 3.104386 31.708244 3.735811
2003-01-21 08:21:41 51°16.223 2°54.275 6.97888 3.105018 31.714559 3.836939
2003-01-21 08:21:46 51°16.223 2°54.275 6.69346 3.107755 31.749607 3.76952
2003-01-21 08:21:51 51°16.224 2°54.275 6.611549 3.106281 31.731303 3.76952
2003-01-21 08:21:55 51°16.224 2°54.274 6.611549 3.106281 31.731303 3.76952
2003-01-21 08:22:01 51°16.224 2°54.274 6.975882 3.106913 31.735972 3.668392
2003-01-21 08:22:06 51°16.224 2°54.274 6.81337 3.104702 31.711813 3.702101
2003-01-21 08:22:11 51°16.224 2°54.274 7.218631 3.105965 31.725265 3.702101
2003-01-21 08:22:15 51°16.223 2°54.274 6.976079 3.107439 31.742743 3.76952
2003-01-21 08:22:21 51°16.224 2°54.274 6.652616 3.104596 31.710623 3.735811
2003-01-21 08:22:25 51°16.223 2°54.274 6.652616 3.104596 31.710623 3.735811
2003-01-21 08:22:31 51°16.224 2°54.274 7.216868 3.107439 31.745214 3.735811
2003-01-21 08:22:35 51°16.224 2°54.274 7.215693 3.104386 31.709066 3.76952
2003-01-21 08:22:39 51°16.224 2°54.274 6.733291 3.106597 31.733226 3.80323
2003-01-21 08:22:46 51°16.224 2°54.274 7.499183 3.102912 31.693235 3.80323
2003-01-21 08:22:51 51°16.224 2°54.274 6.449391 3.106702 31.733592 3.76952
2003-01-21 08:22:55 51°16.224 2°54.274 6.449391 3.106702 31.733592 3.76952
2003-01-21 08:23:01 51°16.224 2°54.274 6.934973 3.106176 31.72929 3.80323
2003-01-21 08:23:05 51°16.224 2°54.274 6.812434 3.105754 31.722886 3.80323
2003-01-21 08:23:11 51°16.224 2°54.274 6.893497 3.107228 31.738717 3.76952
2003-01-21 08:23:15 51°16.224 2°54.274 6.85283 3.100912 31.671457 3.735811
2003-01-21 08:23:21 51°16.224 2°54.274 7.295512 3.105228 31.718583 3.76952
2003-01-21 08:23:26 51°16.224 2°54.274 7.295512 3.105228 31.718583 3.76952
2003-01-21 08:23:31 51°16.224 2°54.274 6.651628 3.104807 31.714647 3.80323
2003-01-21 08:23:35 51°16.224 2°54.274 6.81268 3.105123 31.718216 3.735811
2003-01-21 08:23:41 51°16.223 2°54.274 7.095704 3.105649 31.724165 3.668392
2003-01-21 08:23:46 51°16.223 2°54.274 7.217897 3.104702 31.713458 3.76952
2003-01-21 08:23:51 51°16.223 2°54.274 7.21775 3.103649 31.702384 3.76952
2003-01-21 08:23:55 51°16.223 2°54.274 7.21775 3.103649 31.702384 3.76952
2003-01-21 08:24:01 51°16.223 2°54.274 6.776548 3.105333 31.719773 3.76952
2003-01-21 08:24:06 51°16.223 2°54.274 6.693608 3.10607 31.7281 3.735811
2003-01-21 08:24:11 51°16.223 2°54.274 6.977406 3.104912 31.71666 3.702101
2003-01-21 08:24:15 51°16.223 2°54.273 7.336435 3.103228 31.697626 3.735811
2003-01-21 08:24:21 51°16.223 2°54.273 6.734623 3.105123 31.716571 3.735811
2003-01-21 08:24:25 51°16.223 2°54.274 6.734623 3.105123 31.716571 3.735811
2003-01-21 08:24:31 51°16.223 2°54.274 7.216036 3.105018 31.717027 3.76952
2003-01-21 08:24:35 51°16.223 2°54.274 7.015586 3.106176 31.730936 3.76952
2003-01-21 08:24:41 51°16.223 2°54.274 7.055019 3.10586 31.726544 3.735811
2003-01-21 08:24:45 51°16.223 2°54.274 7.294045 3.10586 31.727367 3.80323
2003-01-21 08:24:51 51°16.223 2°54.274 6.650937 3.106386 31.730846 3.702101
2003-01-21 08:24:56 51°16.223 2°54.274 6.650937 3.106386 31.730846 3.702101
2003-01-21 08:25:00 51°16.223 2°54.274 6.61051 3.103649 31.701562 3.702101
2003-01-21 08:25:05 51°16.223 2°54.274 6.812828 3.102701 31.689212 3.702101
2003-01-21 08:25:11 51°16.223 2°54.274 7.097028 3.104175 31.705043 3.702101
2003-01-21 08:25:15 51°16.223 2°54.274 6.776893 3.104175 31.70751 3.735811
2003-01-21 08:25:21 51°16.223 2°54.274 6.73408 3.10407 31.707143 3.735811
2003-01-21 08:25:25 51°16.223 2°54.274 6.73408 3.10407 31.707143 3.735811
2003-01-21 08:25:31 51°16.223 2°54.274 6.974751 3.101964 31.683352 3.668392
2003-01-21 08:25:36 51°16.223 2°54.274 6.93212 3.102912 31.694057 3.668392
2003-01-21 08:25:41 51°16.223 2°54.274 7.055903 3.104386 31.712357 3.735811
2003-01-21 08:25:45 51°16.223 2°54.274 6.814503 3.105333 31.718127 3.702101
2003-01-21 08:25:51 51°16.223 2°54.275 6.690547 3.105018 31.716204 3.76952
2003-01-21 08:25:55 51°16.223 2°54.275 6.690547 3.105018 31.716204 3.76952
2003-01-21 08:26:01 51°16.223 2°54.275 6.974112 3.10407 31.70632 3.702101
2003-01-21 08:26:05 51°16.223 2°54.275 6.529631 3.105018 31.717027 3.80323
2003-01-21 08:26:11 51°16.223 2°54.274 7.096391 3.104702 31.713458 3.702101
2003-01-21 08:26:15 51°16.222 2°54.274 6.650788 3.103965 31.705953 3.76952
2003-01-21 08:26:21 51°16.223 2°54.275 6.652369 3.103544 31.702017 3.735811
2003-01-21 08:26:25 51°16.223 2°54.275 6.652369 3.103544 31.702017 3.735811
2003-01-21 08:26:31 51°16.223 2°54.275 6.693904 3.106386 31.732493 3.80323
2003-01-21 08:26:35 51°16.223 2°54.275 6.976177 3.10607 31.729746 3.836939
2003-01-21 08:26:41 51°16.223 2°54.275 6.893201 3.104281 31.708699 3.634683
2003-01-21 08:26:45 51°16.223 2°54.275 7.697445 3.101543 31.679415 3.80323
2003-01-21 08:26:51 51°16.223 2°54.275 7.176212 3.103017 31.694425 3.76952
2003-01-21 08:26:55 51°16.222 2°54.275 7.176212 3.103017 31.694425 3.76952
2003-01-21 08:26:59 51°16.222 2°54.275 7.01647 3.103965 31.705953 3.76952
2003-01-21 08:27:06 51°16.222 2°54.275 6.81406 3.105439 31.720962 3.76952
2003-01-21 08:27:11 51°16.221 2°54.274 7.015438 3.104596 31.712268 3.76952
2003-01-21 08:27:16 51°16.221 2°54.274 6.773787 3.102807 31.692046 3.870648
2003-01-21 08:27:21 51°16.221 2°54.274 6.73255 3.103754 31.702751 3.80323
2003-01-21 08:27:25 51°16.221 2°54.274 6.73255 3.103754 31.702751 3.80323
2003-01-21 08:27:31 51°16.221 2°54.275 6.852732 3.103333 31.699638 3.76952
2003-01-21 08:27:35 51°16.222 2°54.275 7.0959 3.103965 31.705131 3.80323
2003-01-21 08:27:41 51°16.222 2°54.274 6.81475 3.10207 31.685363 3.870648
2003-01-21 08:27:46 51°16.222 2°54.275 7.0959 3.105439 31.720962 3.80323
2003-01-21 08:27:51 51°16.223 2°54.275 7.054528 3.10386 31.705586 3.836939
2003-01-21 08:27:55 51°16.223 2°54.275 7.054528 3.10386 31.705586 3.836939
2003-01-21 08:28:01 51°16.223 2°54.275 6.93458 3.103017 31.696069 3.80323
2003-01-21 08:28:06 51°16.223 2°54.275 7.01647 3.105333 31.721418 3.870648
2003-01-21 08:28:09 51°16.223 2°54.275 7.095851 3.103859 31.704763 3.80323
2003-01-21 08:28:16 51°16.223 2°54.275 6.978733 3.105018 31.718672 3.80323
2003-01-21 08:28:21 51°16.223 2°54.275 6.532353 3.104175 31.70751 3.76952
2003-01-21 08:28:25 51°16.223 2°54.275 6.532353 3.104175 31.70751 3.76952
2003-01-21 08:28:31 51°16.223 2°54.275 6.246906 3.103649 31.704029 3.76952
2003-01-21 08:28:35 51°16.223 2°54.275 6.572581 3.105439 31.724254 3.836939
2003-01-21 08:28:41 51°16.223 2°54.275 6.6114 3.104281 31.709522 3.836939
2003-01-21 08:28:46 51°16.223 2°54.275 6.856278 3.104491 31.713546 3.836939
2003-01-21 08:28:51 51°16.223 2°54.275 7.096538 3.105755 31.725354 3.870648
2003-01-21 08:28:56 51°16.223 2°54.275 7.096538 3.105755 31.725354 3.870648
2003-01-21 08:29:01 51°16.223 2°54.275 7.096979 3.102807 31.692046 3.938067
2003-01-21 08:29:06 51°16.223 2°54.275 7.176016 3.104175 31.709155 3.938067
2003-01-21 08:29:11 51°16.222 2°54.275 7.258086 3.106597 31.735695 3.938067
2003-01-21 08:29:15 51°16.222 2°54.275 7.13651 3.105333 31.721418 3.904358
2003-01-21 08:29:21 51°16.222 2°54.275 6.772998 3.103123 31.694792 3.938067
2003-01-21 08:29:25 51°16.222 2°54.275 6.772998 3.103123 31.694792 3.938067
2003-01-21 08:29:31 51°16.221 2°54.276 6.977307 3.101543 31.677772 3.904358
2003-01-21 08:29:35 51°16.221 2°54.276 7.419764 3.101122 31.672193 3.904358
2003-01-21 08:29:41 51°16.221 2°54.276 7.336826 3.103754 31.704396 3.938067
2003-01-21 08:29:45 51°16.221 2°54.276 7.21677 3.103438 31.699183 3.904358
2003-01-21 08:29:51 51°16.22 2°54.276 6.733044 3.101228 31.675847 3.870648
2003-01-21 08:29:55 51°16.22 2°54.276 6.733044 3.101228 31.675847 3.870648
2003-01-21 08:30:01 51°16.22 2°54.277 7.017108 3.105228 31.721875 3.836939
2003-01-21 08:30:05 51°16.22 2°54.277 7.174742 3.103754 31.701929 3.938067
2003-01-21 08:30:11 51°16.221 2°54.277 7.136019 3.102596 31.689667 3.904358
2003-01-21 08:30:15 51°16.221 2°54.277 7.094919 3.104596 31.713913 3.870648
2003-01-21 08:30:21 51°16.221 2°54.278 7.214567 3.10407 31.707965 3.971777
2003-01-21 08:30:25 51°16.221 2°54.278 7.214567 3.10407 31.707965 3.971777
2003-01-21 08:30:31 51°16.221 2°54.278 7.214763 3.104175 31.709155 3.870648
2003-01-21 08:30:35 51°16.221 2°54.278 7.296539 3.10386 31.705586 3.836939
2003-01-21 08:30:41 51°16.221 2°54.278 6.851796 3.10407 31.707965 3.836939
2003-01-21 08:30:46 51°16.221 2°54.278 7.174595 3.103228 31.697626 3.836939
2003-01-21 08:30:51 51°16.221 2°54.278 6.77142 3.099754 31.659195 3.870648
2003-01-21 08:30:55 51°16.221 2°54.278 6.77142 3.099754 31.659195 3.870648
2003-01-21 08:30:59 51°16.222 2°54.279 6.65227 3.104491 31.711901 3.836939
2003-01-21 08:31:05 51°16.222 2°54.279 6.653308 3.104386 31.711534 3.971777
2003-01-21 08:31:11 51°16.222 2°54.279 6.875579 3.101228 31.675847 3.904358
2003-01-21 08:31:15 51°16.222 2°54.279 6.894875 3.100701 31.670721 3.938067
2003-01-21 08:31:21 51°16.222 2°54.279 7.335408 3.104912 31.71666 3.938067
2003-01-21 08:31:25 51°16.223 2°54.279 7.335408 3.104912 31.71666 3.938067
2003-01-21 08:31:31 51°16.223 2°54.279 7.177829 3.10228 31.688564 3.938067
2003-01-21 08:31:35 51°16.223 2°54.279 7.095704 3.10207 31.685363 3.971777
2003-01-21 08:31:41 51°16.223 2°54.278 7.335897 3.099543 31.655995 3.904358
2003-01-21 08:31:46 51°16.223 2°54.278 7.25515 3.100912 31.669814 4.039195
2003-01-21 08:31:51 51°16.224 2°54.278 6.693114 3.099648 31.657184 4.039195
2003-01-21 08:31:56 51°16.224 2°54.278 6.693114 3.099648 31.657184 4.039195
2003-01-21 08:32:01 51°16.224 2°54.278 6.692473 3.101228 31.674204 4.106614
2003-01-21 08:32:06 51°16.224 2°54.278 6.934776 3.103333 31.697171 4.072905
2003-01-21 08:32:11 51°16.224 2°54.277 6.934973 3.101228 31.675025 4.039195
2003-01-21 08:32:15 51°16.224 2°54.277 7.135627 3.103333 31.698815 4.072905
2003-01-21 08:32:21 51°16.224 2°54.277 6.93458 3.099859 31.660384 4.106614
2003-01-21 08:32:26 51°16.224 2°54.277 6.93458 3.099859 31.660384 4.106614
2003-01-21 08:32:31 51°16.224 2°54.277 7.334675 3.10028 31.668428 4.241452
2003-01-21 08:32:35 51°16.224 2°54.277 6.813863 3.099754 31.659195 4.174033
2003-01-21 08:32:41 51°16.224 2°54.276 6.5709 3.103965 31.707598 4.241452
2003-01-21 08:32:45 51°16.224 2°54.276 6.285676 3.105755 31.726177 4.174033
2003-01-21 08:32:51 51°16.224 2°54.276 6.611697 3.100596 31.667889 4.308871
2003-01-21 08:32:56 51°16.224 2°54.276 6.611697 3.100596 31.667889 4.308871
2003-01-21 08:33:01 51°16.224 2°54.275 6.529928 3.10028 31.665142 4.275161
2003-01-21 08:33:06 51°16.224 2°54.275 6.611153 3.10407 31.708788 4.34258
2003-01-21 08:33:11 51°16.224 2°54.275 6.691831 3.102386 31.687288 4.376289
2003-01-21 08:33:15 51°16.225 2°54.274 6.732847 3.101438 31.677404 4.376289
2003-01-21 08:33:21 51°16.224 2°54.274 7.257401 3.101649 31.681427 4.376289
2003-01-21 08:33:25 51°16.225 2°54.274 7.257401 3.101649 31.681427 4.376289
2003-01-21 08:33:31 51°16.225 2°54.273 7.175526 3.104281 31.708699 4.275161
2003-01-21 08:33:35 51°16.225 2°54.273 6.97598 3.104175 31.709155 4.376289
2003-01-21 08:33:41 51°16.225 2°54.273 7.255786 3.103754 31.704396 4.376289
2003-01-21 08:33:46 51°16.225 2°54.273 7.535152 3.103333 31.699638 4.409999
2003-01-21 08:33:51 51°16.225 2°54.272 6.976029 3.102175 31.687374 4.34258
2003-01-21 08:33:55 51°16.225 2°54.272 6.976029 3.102175 31.687374 4.34258
2003-01-21 08:34:01 51°16.225 2°54.272 6.771666 3.101754 31.682616 4.443708
2003-01-21 08:34:05 51°16.225 2°54.272 6.977455 3.099754 31.657552 4.34258
2003-01-21 08:34:11 51°16.226 2°54.272 6.692423 3.101228 31.675847 4.308871
2003-01-21 08:34:16 51°16.226 2°54.272 7.416591 3.10028 31.66432 4.376289
2003-01-21 08:34:21 51°16.226 2°54.271 7.256716 3.101859 31.682162 4.34258
2003-01-21 08:34:25 51°16.226 2°54.271 7.256716 3.101859 31.682162 4.34258
2003-01-21 08:34:31 51°16.226 2°54.271 7.095459 3.098911 31.64968 4.376289
2003-01-21 08:34:35 51°16.226 2°54.271 6.773639 3.101649 31.683071 4.34258
2003-01-21 08:34:41 51°16.226 2°54.271 6.893546 3.105228 31.719406 4.409999
2003-01-21 08:34:46 51°16.225 2°54.271 6.490861 3.101859 31.67641 4.34258
2003-01-21 08:34:51 51°16.225 2°54.271 6.691732 3.101754 31.670293 4.443708
2003-01-21 08:34:55 51°16.225 2°54.271 6.691732 3.101754 31.670293 4.443708
2003-01-21 08:35:01 51°16.225 2°54.271 6.935612 3.107649 31.73936 4.409999
2003-01-21 08:35:06 51°16.225 2°54.271 6.73482 3.105544 31.718039 4.443708
2003-01-21 08:35:11 51°16.225 2°54.271 7.21961 3.106702 31.731946 4.443708
2003-01-21 08:35:15 51°16.225 2°54.271 6.934088 3.10607 31.726455 4.477418
2003-01-21 08:35:21 51°16.225 2°54.272 7.055068 3.104491 31.708611 4.578546
2003-01-21 08:35:25 51°16.225 2°54.272 7.055068 3.104491 31.708611 4.578546
2003-01-21 08:35:31 51°16.225 2°54.272 6.934924 3.105649 31.722519 4.511127
2003-01-21 08:35:35 51°16.225 2°54.272 6.854652 3.105649 31.721696 4.443708
2003-01-21 08:35:41 51°16.225 2°54.272 7.096734 3.105649 31.721696 4.544836
2003-01-21 08:35:45 51°16.225 2°54.272 6.976472 3.105544 31.722975 4.544836
2003-01-21 08:35:51 51°16.225 2°54.273 7.135921 3.10386 31.705586 4.544836
2003-01-21 08:35:55 51°16.225 2°54.273 7.135921 3.10386 31.705586 4.544836
2003-01-21 08:36:01 51°16.225 2°54.273 6.692275 3.104175 31.708332 4.477418
2003-01-21 08:36:05 51°16.225 2°54.273 6.811941 3.105018 31.717027 4.578546
2003-01-21 08:36:11 51°16.225 2°54.273 6.694299 3.105018 31.718672 4.511127
2003-01-21 08:36:15 51°16.224 2°54.273 6.977012 3.103649 31.702384 4.578546
2003-01-21 08:36:21 51°16.225 2°54.273 7.135921 3.10586 31.72819 4.578546
2003-01-21 08:36:25 51°16.224 2°54.273 7.135921 3.10586 31.72819 4.578546
2003-01-21 08:36:31 51°16.225 2°54.273 6.93694 3.106702 31.736062 4.578546
2003-01-21 08:36:35 51°16.224 2°54.273 6.976177 3.105544 31.726267 4.544836
2003-01-21 08:36:41 51°16.224 2°54.274 6.732847 3.106176 31.732582 4.612255
2003-01-21 08:36:46 51°16.224 2°54.274 7.040928 3.104912 31.718305 4.578546
2003-01-21 08:36:51 51°16.224 2°54.274 7.295414 3.105228 31.721875 4.544836
2003-01-21 08:36:55 51°16.224 2°54.274 7.295414 3.105228 31.721875 4.544836
2003-01-21 08:37:01 51°16.224 2°54.274 7.336924 3.105755 31.728646 4.578546
2003-01-21 08:37:05 51°16.224 2°54.274 7.136167 3.105018 31.719495 4.645965
2003-01-21 08:37:11 51°16.224 2°54.274 6.894727 3.105018 31.717849 4.578546
2003-01-21 08:37:15 51°16.224 2°54.274 6.815243 3.103754 31.706041 4.578546
2003-01-21 08:37:21 51°16.224 2°54.274 6.773589 3.104386 31.712357 4.612255
2003-01-21 08:37:25 51°16.224 2°54.274 6.773589 3.104386 31.712357 4.612255
2003-01-21 08:37:31 51°16.224 2°54.274 7.254661 3.105123 31.719862 4.645965
2003-01-21 08:37:35 51°16.224 2°54.274 6.89389 3.102386 31.688932 4.645965
2003-01-21 08:37:41 51°16.224 2°54.274 6.893792 3.105333 31.722241 4.612255
2003-01-21 08:37:46 51°16.224 2°54.274 7.133274 3.104912 31.715837 4.645965
2003-01-21 08:37:51 51°16.224 2°54.274 7.054332 3.103333 31.70046 4.645965
2003-01-21 08:37:55 51°16.224 2°54.274 7.054332 3.103333 31.70046 4.645965
2003-01-21 08:38:01 51°16.223 2°54.274 6.689461 3.103754 31.705219 4.645965
2003-01-21 08:38:05 51°16.223 2°54.274 7.335066 3.103754 31.702751 4.612255
2003-01-21 08:38:11 51°16.223 2°54.274 7.215252 3.104596 31.712268 4.578546
2003-01-21 08:38:15 51°16.223 2°54.274 6.89325 3.104281 31.709522 4.544836
2003-01-21 08:38:21 51°16.223 2°54.274 7.255297 3.103017 31.694425 4.544836
2003-01-21 08:38:25 51°16.223 2°54.274 7.255297 3.103017 31.694425 4.544836
2003-01-21 08:38:31 51°16.223 2°54.275 7.294974 3.102701 31.6925 4.544836
2003-01-21 08:38:36 51°16.223 2°54.275 7.255639 3.104491 31.713546 4.511127
2003-01-21 08:38:41 51°16.223 2°54.275 7.092515 3.103123 31.699725 4.477418
2003-01-21 08:38:45 51°16.223 2°54.275 6.89389 3.10207 31.684541 4.511127
2003-01-21 08:38:51 51°16.222 2°54.276 7.412881 3.103017 31.696069 4.544836
2003-01-21 08:38:55 51°16.222 2°54.276 7.412881 3.103017 31.696069 4.544836
2003-01-21 08:39:01 51°16.222 2°54.276 7.211041 3.101859 31.683806 4.409999
2003-01-21 08:39:05 51°16.222 2°54.276 7.134352 3.103965 31.709243 4.511127
2003-01-21 08:39:11 51°16.222 2°54.276 6.891429 3.10386 31.706408 4.477418
2003-01-21 08:39:15 51°16.222 2°54.277 6.529482 3.100701 31.670721 4.511127
2003-01-21 08:39:21 51°16.222 2°54.277 7.415615 3.102386 31.688932 4.409999
2003-01-21 08:39:25 51°16.222 2°54.277 7.415615 3.102386 31.688932 4.409999
2003-01-21 08:39:31 51°16.222 2°54.277 7.413272 3.102596 31.693777 4.477418
2003-01-21 08:39:35 51°16.222 2°54.278 6.769102 3.102596 31.692955 4.409999
2003-01-21 08:39:41 51°16.222 2°54.278 6.648417 3.101965 31.686639 4.34258
2003-01-21 08:39:45 51°16.222 2°54.278 6.931973 3.105018 31.722787 4.34258
2003-01-21 08:39:51 51°16.222 2°54.278 7.132293 3.103017 31.696069 4.34258
2003-01-21 08:39:55 51°16.222 2°54.278 7.132293 3.103017 31.696069 4.34258
2003-01-21 08:40:01 51°16.222 2°54.279 6.932809 3.102491 31.690121 4.308871
2003-01-21 08:40:05 51°16.222 2°54.279 6.931973 3.103438 31.70165 4.275161
2003-01-21 08:40:11 51°16.222 2°54.279 6.933645 3.100069 31.662763 4.241452
2003-01-21 08:40:15 51°16.222 2°54.279 6.970819 3.103438 31.699183 4.207742
2003-01-21 08:40:21 51°16.221 2°54.279 7.291697 3.102701 31.6925 4.207742
2003-01-21 08:40:25 51°16.221 2°54.279 7.291697 3.102701 31.6925 4.207742
2003-01-21 08:40:31 51°16.221 2°54.279 6.808393 3.102807 31.69369 4.072905
2003-01-21 08:40:35 51°16.221 2°54.279 6.889854 3.10207 31.686185 4.106614
2003-01-21 08:40:41 51°16.221 2°54.279 6.930792 3.101754 31.683438 4.174033
2003-01-21 08:40:45 51°16.221 2°54.279 7.210992 3.103123 31.698081 4.106614
2003-01-21 08:40:51 51°16.221 2°54.279 7.010526 3.102912 31.697346 4.174033
2003-01-21 08:40:55 51°16.221 2°54.279 7.010526 3.102912 31.697346 4.174033
2003-01-21 08:41:01 51°16.221 2°54.279 6.99328 3.10028 31.667606 4.140324
2003-01-21 08:41:05 51°16.221 2°54.279 7.062579 3.099754 31.661659 4.072905
2003-01-21 08:41:11 51°16.221 2°54.279 6.40472 3.101859 31.687916 4.106614
2003-01-21 08:41:15 51°16.221 2°54.279 6.972244 3.103333 31.701282 4.005486
2003-01-21 08:41:21 51°16.221 2°54.279 6.970426 3.100491 31.671629 4.072905
2003-01-21 08:41:25 51°16.221 2°54.279 6.970426 3.100491 31.671629 4.072905
2003-01-21 08:41:31 51°16.221 2°54.279 6.911458 3.101754 31.685082 3.971777
2003-01-21 08:41:35 51°16.221 2°54.279 6.808886 3.101228 31.679956 3.971777
2003-01-21 08:41:41 51°16.221 2°54.279 6.971114 3.10028 31.668428 3.971777
2003-01-21 08:41:45 51°16.22 2°54.279 6.969492 3.101438 31.682335 3.971777
2003-01-21 08:41:51 51°16.22 2°54.279 7.371714 3.101333 31.67868 3.938067
2003-01-21 08:41:55 51°16.22 2°54.279 7.371714 3.101333 31.67868 3.938067
2003-01-21 08:42:01 51°16.22 2°54.28 6.930251 3.099438 31.65809 3.971777
2003-01-21 08:42:05 51°16.22 2°54.28 7.130577 3.100701 31.671543 4.005486
2003-01-21 08:42:11 51°16.22 2°54.28 7.491284 3.099648 31.661291 4.005486
2003-01-21 08:42:15 51°16.22 2°54.28 6.80997 3.099333 31.657722 3.971777
2003-01-21 08:42:20 51°16.22 2°54.28 7.291746 3.10028 31.665963 3.971777
2003-01-21 08:42:26 51°16.22 2°54.28 7.291746 3.10028 31.665963 3.971777
2003-01-21 08:42:31 51°16.22 2°54.281 7.051533 3.099333 31.65608 3.904358
2003-01-21 08:42:35 51°16.22 2°54.281 7.292577 3.103438 31.703295 3.904358
2003-01-21 08:42:41 51°16.22 2°54.281 7.570127 3.100701 31.674008 3.971777
2003-01-21 08:42:45 51°16.22 2°54.281 6.80992 3.104386 31.714825 3.971777
2003-01-21 08:42:51 51°16.22 2°54.281 6.645749 3.102175 31.690663 3.938067
2003-01-21 08:42:55 51°16.22 2°54.281 6.645749 3.102175 31.690663 3.938067
2003-01-21 08:43:01 51°16.22 2°54.281 6.850713 3.102807 31.698624 3.904358
2003-01-21 08:43:05 51°16.22 2°54.282 7.532618 3.101333 31.681146 3.904358
2003-01-21 08:43:11 51°16.22 2°54.282 7.051533 3.099017 31.654975 3.870648
2003-01-21 08:43:15 51°16.22 2°54.282 6.810955 3.100806 31.674376 3.836939
2003-01-21 08:43:21 51°16.219 2°54.282 7.252409 3.104386 31.715648 3.836939
2003-01-21 08:43:25 51°16.22 2°54.282 7.252409 3.104386 31.715648 3.836939
2003-01-21 08:43:31 51°16.219 2°54.282 6.928677 3.104386 31.713179 3.904358
2003-01-21 08:43:35 51°16.219 2°54.282 7.171067 3.102596 31.696244 3.971777
2003-01-21 08:43:41 51°16.219 2°54.282 7.169939 3.103754 31.710154 3.971777
2003-01-21 08:43:45 51°16.219 2°54.282 7.6136 3.10407 31.711256 3.904358
2003-01-21 08:43:49 51°16.219 2°54.282 6.849481 3.103123 31.699725 3.971777
2003-01-21 08:43:55 51°16.219 2°54.282 6.849481 3.103123 31.699725 3.971777
2003-01-21 08:44:00 51°16.219 2°54.283 7.051484 3.104491 31.715192 3.971777
2003-01-21 08:44:06 51°16.219 2°54.283 6.889854 3.104175 31.711623 3.904358
2003-01-21 08:44:11 51°16.219 2°54.283 6.607693 3.104491 31.715192 3.904358
2003-01-21 08:44:16 51°16.219 2°54.283 7.411417 3.103544 31.704484 4.005486
2003-01-21 08:44:20 51°16.219 2°54.283 7.213979 3.102386 31.691398 3.938067
2003-01-21 08:44:26 51°16.219 2°54.283 7.213979 3.102386 31.691398 3.938067
2003-01-21 08:44:31 51°16.219 2°54.283 6.689164 3.104281 31.712812 3.938067
2003-01-21 08:44:36 51°16.219 2°54.283 7.129596 3.10228 31.691853 3.971777
2003-01-21 08:44:40 51°16.219 2°54.283 7.210551 3.102701 31.695789 3.938067
2003-01-21 08:44:46 51°16.219 2°54.283 7.132587 3.103965 31.710066 3.904358
2003-01-21 08:44:51 51°16.219 2°54.283 6.526166 3.101649 31.685537 3.904358
2003-01-21 08:44:56 51°16.219 2°54.283 6.526166 3.101649 31.685537 3.904358
2003-01-21 08:45:00 51°16.219 2°54.283 7.049619 3.102912 31.700636 3.938067
2003-01-21 08:45:06 51°16.219 2°54.283 7.050208 3.104386 31.714002 3.938067
2003-01-21 08:45:10 51°16.218 2°54.283 7.09016 3.102596 31.696244 3.938067
2003-01-21 08:45:16 51°16.218 2°54.283 6.808393 3.101543 31.684347 4.072905
2003-01-21 08:45:20 51°16.218 2°54.283 7.251822 3.103017 31.700181 3.938067
2003-01-21 08:45:26 51°16.218 2°54.283 7.251822 3.103017 31.700181 3.938067
2003-01-21 08:45:30 51°16.219 2°54.283 6.604924 3.10386 31.707231 3.938067
2003-01-21 08:45:36 51°16.219 2°54.283 7.050699 3.103754 31.708509 3.971777
2003-01-21 08:45:40 51°16.219 2°54.283 6.887393 3.103754 31.708509 4.005486
2003-01-21 08:45:46 51°16.219 2°54.283 6.564914 3.103754 31.707686 3.904358
2003-01-21 08:45:50 51°16.219 2°54.283 6.84889 3.101228 31.678312 3.904358
2003-01-21 08:45:56 51°16.219 2°54.283 6.84889 3.101228 31.678312 3.904358
2003-01-21 08:46:00 51°16.219 2°54.283 7.009052 3.103754 31.707686 4.005486
2003-01-21 08:46:06 51°16.219 2°54.283 7.330765 3.102491 31.695054 3.971777
2003-01-21 08:46:11 51°16.219 2°54.283 7.330178 3.10407 31.712078 4.005486
2003-01-21 08:46:16 51°16.219 2°54.283 7.00861 3.103544 31.706129 3.971777
2003-01-21 08:46:20 51°16.219 2°54.283 7.570322 3.101333 31.681968 3.971777
2003-01-21 08:46:26 51°16.219 2°54.283 7.570322 3.101333 31.681968 3.971777
2003-01-21 08:46:30 51°16.219 2°54.283 7.050846 3.102596 31.695422 3.938067
2003-01-21 08:46:36 51°16.219 2°54.283 6.968115 3.103438 31.70494 3.938067
2003-01-21 08:46:40 51°16.219 2°54.283 7.035428 3.104281 31.714458 4.005486
2003-01-21 08:46:46 51°16.219 2°54.283 6.888378 3.104386 31.714825 3.938067
2003-01-21 08:46:50 51°16.218 2°54.283 7.208543 3.103754 31.710154 4.039195
2003-01-21 08:46:56 51°16.218 2°54.283 7.208543 3.103754 31.710154 4.039195
2003-01-21 08:47:00 51°16.218 2°54.283 7.048342 3.102807 31.696979 3.904358
2003-01-21 08:47:06 51°16.218 2°54.283 7.088197 3.103438 31.705762 4.005486
2003-01-21 08:47:10 51°16.218 2°54.283 6.807161 3.102175 31.689019 3.938067
2003-01-21 08:47:16 51°16.219 2°54.283 6.847413 3.104386 31.718117 3.938067
2003-01-21 08:47:20 51°16.219 2°54.283 6.60616 3.102175 31.691485 3.904358
2003-01-21 08:47:26 51°16.219 2°54.283 6.60616 3.102175 31.691485 3.904358
2003-01-21 08:47:30 51°16.219 2°54.283 7.090994 3.101859 31.687094 4.005486
2003-01-21 08:47:36 51°16.219 2°54.283 7.090062 3.10386 31.710521 3.971777
2003-01-21 08:47:40 51°16.219 2°54.283 6.608385 3.103123 31.702193 3.938067
2003-01-21 08:47:46 51°16.219 2°54.283 6.724754 3.10228 31.692675 3.938067
2003-01-21 08:47:50 51°16.219 2°54.283 6.646737 3.103333 31.705395 3.938067
2003-01-21 08:47:56 51°16.219 2°54.283 6.646737 3.103333 31.705395 3.938067
2003-01-21 08:48:00 51°16.219 2°54.283 7.009248 3.103017 31.701826 4.039195
2003-01-21 08:48:06 51°16.219 2°54.284 7.331303 3.10228 31.692675 3.938067
2003-01-21 08:48:10 51°16.219 2°54.284 7.249669 3.103228 31.700915 4.005486
2003-01-21 08:48:16 51°16.219 2°54.284 7.847255 3.103017 31.701826 4.005486
2003-01-21 08:48:20 51°16.219 2°54.284 6.646935 3.101754 31.685904 3.938067
2003-01-21 08:48:26 51°16.219 2°54.284 6.646935 3.101754 31.685904 3.938067
2003-01-21 08:48:31 51°16.219 2°54.284 7.168567 3.103228 31.704205 3.971777
2003-01-21 08:48:36 51°16.219 2°54.284 7.131459 3.102491 31.694232 4.072905
2003-01-21 08:48:40 51°16.219 2°54.284 7.491236 3.103017 31.701826 3.938067
2003-01-21 08:48:46 51°16.219 2°54.284 7.331009 3.103017 31.701003 4.005486
2003-01-21 08:48:50 51°16.219 2°54.284 7.209278 3.103017 31.702648 3.971777
2003-01-21 08:48:56 51°16.219 2°54.284 7.209278 3.103017 31.702648 3.971777
2003-01-21 08:49:00 51°16.219 2°54.284 6.928726 3.103649 31.71061 4.039195
2003-01-21 08:49:06 51°16.219 2°54.284 7.330911 3.103438 31.709053 4.072905
2003-01-21 08:49:11 51°16.219 2°54.284 7.568277 3.100912 31.677209 4.072905
2003-01-21 08:49:16 51°16.219 2°54.284 7.16842 3.103438 31.706585 4.039195
2003-01-21 08:49:21 51°16.219 2°54.284 7.1294 3.101543 31.684347 4.039195
2003-01-21 08:49:26 51°16.219 2°54.284 7.1294 3.101543 31.684347 4.039195
2003-01-21 08:49:30 51°16.219 2°54.284 7.250109 3.103228 31.70256 3.971777
2003-01-21 08:49:35 51°16.219 2°54.284 7.010427 3.103017 31.701003 3.971777
2003-01-21 08:49:39 51°16.219 2°54.284 7.210649 3.101017 31.683331 4.039195
2003-01-21 08:49:46 51°16.219 2°54.284 6.970032 3.101017 31.67922 4.072905
2003-01-21 08:49:50 51°16.219 2°54.284 6.847019 3.101228 31.682422 4.005486
2003-01-21 08:49:56 51°16.219 2°54.284 6.847019 3.101228 31.682422 4.005486
2003-01-21 08:50:00 51°16.219 2°54.284 7.128714 3.10207 31.69194 4.039195
2003-01-21 08:50:06 51°16.219 2°54.283 7.047066 3.102491 31.694232 4.174033
2003-01-21 08:50:10 51°16.219 2°54.283 7.367611 3.103228 31.698448 4.039195
2003-01-21 08:50:16 51°16.219 2°54.283 6.928775 3.100806 31.675197 4.207742
2003-01-21 08:50:20 51°16.219 2°54.283 7.290523 3.102807 31.698624 4.174033
2003-01-21 08:50:26 51°16.219 2°54.283 7.290523 3.102807 31.698624 4.174033
2003-01-21 08:50:31 51°16.219 2°54.283 7.726745 3.10386 31.709699 4.106614
2003-01-21 08:50:36 51°16.219 2°54.283 7.17141 3.101754 31.686726 4.072905
2003-01-21 08:50:40 51°16.219 2°54.282 7.168077 3.100701 31.675651 4.005486
2003-01-21 08:50:46 51°16.219 2°54.282 6.968115 3.101754 31.687548 4.174033
2003-01-21 08:50:50 51°16.219 2°54.282 7.088688 3.102701 31.697434 4.106614
2003-01-21 08:50:56 51°16.219 2°54.282 7.088688 3.102701 31.697434 4.106614
2003-01-21 08:51:00 51°16.219 2°54.282 7.05011 3.101754 31.686726 4.072905
2003-01-21 08:51:06 51°16.219 2°54.282 6.685412 3.102702 31.699079 4.005486
2003-01-21 08:51:11 51°16.219 2°54.282 6.928579 3.101543 31.684347 4.072905
2003-01-21 08:51:16 51°16.219 2°54.282 7.411612 3.101965 31.688284 4.005486
2003-01-21 08:51:21 51°16.219 2°54.281 7.369223 3.103228 31.704205 4.106614
2003-01-21 08:51:26 51°16.219 2°54.281 7.369223 3.103228 31.704205 4.106614
2003-01-21 08:51:31 51°16.219 2°54.281 7.492552 3.100596 31.671997 4.140324
2003-01-21 08:51:36 51°16.219 2°54.281 7.328027 3.102386 31.693865 4.174033
2003-01-21 08:51:41 51°16.219 2°54.281 6.846674 3.101859 31.688738 4.140324
2003-01-21 08:51:46 51°16.219 2°54.281 7.08854 3.103123 31.702193 4.174033
2003-01-21 08:51:50 51°16.219 2°54.281 7.33228 3.10007 31.667692 4.241452
2003-01-21 08:51:56 51°16.219 2°54.281 7.33228 3.10007 31.667692 4.241452
2003-01-21 08:52:00 51°16.219 2°54.281 6.970327 3.100175 31.671347 4.275161
2003-01-21 08:52:06 51°16.219 2°54.28 7.170037 3.102175 31.69313 4.174033
2003-01-21 08:52:10 51°16.219 2°54.28 7.17092 3.102175 31.691485 4.140324
2003-01-21 08:52:16 51°16.219 2°54.28 6.967624 3.102596 31.694599 4.207742
2003-01-21 08:52:20 51°16.219 2°54.28 7.207417 3.103228 31.700915 4.140324
2003-01-21 08:52:26 51°16.219 2°54.28 7.207417 3.103228 31.700915 4.140324
2003-01-21 08:52:30 51°16.219 2°54.28 6.645156 3.103017 31.700181 4.106614
2003-01-21 08:52:36 51°16.219 2°54.28 6.926906 3.102912 31.698991 4.072905
2003-01-21 08:52:40 51°16.219 2°54.28 7.127831 3.102807 31.698624 4.140324
2003-01-21 08:52:46 51°16.219 2°54.28 7.047507 3.103965 31.711711 4.039195
2003-01-21 08:52:50 51°16.219 2°54.28 7.129547 3.102807 31.698624 4.207742
2003-01-21 08:52:56 51°16.219 2°54.28 7.129547 3.102807 31.698624 4.207742
2003-01-21 08:53:00 51°16.219 2°54.28 7.167195 3.103123 31.702193 4.174033
2003-01-21 08:53:05 51°16.219 2°54.28 7.2106 3.102807 31.698624 4.174033
2003-01-21 08:53:10 51°16.219 2°54.28 7.329787 3.103017 31.702648 4.072905
2003-01-21 08:53:16 51°16.219 2°54.28 7.60995 3.103017 31.701003 4.174033
2003-01-21 08:53:20 51°16.219 2°54.28 6.889018 3.103017 31.701826 4.241452
2003-01-21 08:53:26 51°16.219 2°54.28 6.889018 3.103017 31.701826 4.241452
2003-01-21 08:53:30 51°16.219 2°54.28 6.887787 3.103544 31.706129 4.241452
2003-01-21 08:53:35 51°16.219 2°54.281 7.288175 3.103017 31.700181 4.174033
2003-01-21 08:53:40 51°16.219 2°54.281 6.888476 3.103228 31.701738 4.174033
2003-01-21 08:53:46 51°16.219 2°54.281 6.928234 3.102701 31.696611 4.174033
2003-01-21 08:53:50 51°16.219 2°54.281 7.72796 3.103123 31.699725 4.207742
2003-01-21 08:53:56 51°16.219 2°54.281 7.72796 3.103123 31.699725 4.207742
2003-01-21 08:54:00 51°16.219 2°54.281 7.169449 3.102701 31.694967 4.308871
2003-01-21 08:54:04 51°16.219 2°54.281 6.887541 3.103017 31.702648 4.241452
2003-01-21 08:54:10 51°16.219 2°54.281 7.289398 3.102491 31.694232 4.207742
2003-01-21 08:54:16 51°16.219 2°54.281 7.006595 3.102596 31.694599 4.275161
2003-01-21 08:54:20 51°16.219 2°54.281 7.208102 3.102807 31.697801 4.308871
2003-01-21 08:54:26 51°16.219 2°54.281 7.208102 3.102807 31.697801 4.308871
2003-01-21 08:54:30 51°16.219 2°54.282 7.127341 3.102596 31.696244 4.308871
2003-01-21 08:54:36 51°16.219 2°54.282 7.367317 3.102807 31.699446 4.308871
2003-01-21 08:54:40 51°16.219 2°54.282 7.129008 3.102491 31.696699 4.308871
2003-01-21 08:54:46 51°16.219 2°54.282 7.088197 3.10228 31.695964 4.308871
2003-01-21 08:54:50 51°16.219 2°54.282 7.367171 3.102702 31.698256 4.241452
2003-01-21 08:54:54 51°16.219 2°54.282 7.367171 3.102702 31.698256 4.241452
2003-01-21 08:55:00 51°16.219 2°54.282 7.527112 3.102491 31.697521 4.275161
2003-01-21 08:55:06 51°16.22 2°54.282 6.765206 3.103333 31.706218 4.241452
2003-01-21 08:55:10 51°16.22 2°54.282 7.366194 3.102596 31.699534 4.207742
2003-01-21 08:55:16 51°16.22 2°54.282 7.328516 3.102491 31.695054 4.308871
2003-01-21 08:55:20 51°16.22 2°54.283 6.887886 3.102491 31.695877 4.275161
2003-01-21 08:55:26 51°16.22 2°54.283 6.887886 3.102491 31.695877 4.275161
2003-01-21 08:55:30 51°16.22 2°54.282 7.087755 3.102491 31.696699 4.207742
2003-01-21 08:55:36 51°16.22 2°54.283 7.766665 3.102491 31.699166 4.241452
2003-01-21 08:55:40 51°16.22 2°54.283 6.6824 3.101333 31.698416 4.275161
2003-01-21 08:55:46 51°16.22 2°54.283 7.005072 3.100175 31.699313 4.241452
2003-01-21 08:55:50 51°16.22 2°54.283 7.042597 3.099017 31.706802 4.241452
2003-01-21 08:55:56 51°16.22 2°54.283 7.042597 3.099017 31.706802 4.241452
2003-01-21 08:56:00 51°16.22 2°54.283 7.042745 3.096491 31.710352 4.241452
2003-01-21 08:56:04 51°16.22 2°54.283 7.082554 3.094701 31.709056 4.241452
2003-01-21 08:56:10 51°16.22 2°54.283 6.760965 3.093333 31.700973 4.207742
2003-01-21 08:56:16 51°16.22 2°54.282 6.759929 3.093122 31.705192 4.275161
2003-01-21 08:56:20 51°16.22 2°54.282 6.680178 3.088911 31.657453 4.275161
2003-01-21 08:56:26 51°16.22 2°54.282 6.680178 3.088911 31.657453 4.275161
2003-01-21 08:56:30 51°16.22 2°54.282 6.921495 3.091438 31.68692 4.207742
2003-01-21 08:56:36 51°16.22 2°54.282 7.321672 3.090701 31.679391 4.241452
2003-01-21 08:56:40 51°16.22 2°54.282 6.881585 3.09228 31.699772 4.275161
2003-01-21 08:56:45 51°16.22 2°54.282 7.24448 3.089964 31.672687 4.275161
2003-01-21 08:56:50 51°16.22 2°54.282 6.84101 3.09007 31.675531 4.275161
2003-01-21 08:56:55 51°16.22 2°54.282 6.84101 3.09007 31.675531 4.275161
2003-01-21 08:57:00 51°16.22 2°54.282 7.442702 3.089648 31.669931 4.241452
2003-01-21 08:57:05 51°16.22 2°54.282 6.920462 3.091859 31.694997 4.275161
2003-01-21 08:57:10 51°16.22 2°54.282 7.24311 3.089543 31.667913 4.207742
2003-01-21 08:57:16 51°16.22 2°54.282 7.4428 3.091859 31.695823 4.241452
2003-01-21 08:57:20 51°16.22 2°54.282 7.241005 3.091543 31.692242 4.241452
2003-01-21 08:57:26 51°16.22 2°54.282 7.241005 3.091543 31.692242 4.241452
2003-01-21 08:57:30 51°16.22 2°54.282 7.200315 3.091543 31.692242 4.275161
2003-01-21 08:57:36 51°16.22 2°54.282 7.242278 3.087122 31.642937 4.275161
2003-01-21 08:57:40 51°16.22 2°54.282 7.202568 3.091438 31.691874 4.308871
2003-01-21 08:57:44 51°16.22 2°54.282 7.24262 3.091228 31.690312 4.275161
2003-01-21 08:57:50 51°16.22 2°54.282 7.36424 3.090912 31.685905 4.34258
2003-01-21 08:57:56 51°16.22 2°54.282 7.36424 3.090912 31.685905 4.34258
2003-01-21 08:58:00 51°16.22 2°54.282 7.201294 3.091543 31.694719 4.34258
2003-01-21 08:58:04 51°16.22 2°54.282 7.0452 3.089122 31.666438 4.308871
2003-01-21 08:58:10 51°16.221 2°54.282 7.042745 3.090806 31.685537 4.34258
2003-01-21 08:58:16 51°16.221 2°54.282 7.288664 3.089333 31.668826 4.34258
2003-01-21 08:58:20 51°16.221 2°54.282 7.200952 3.090912 31.687556 4.275161
2003-01-21 08:58:26 51°16.221 2°54.283 7.200952 3.090912 31.687556 4.275161
2003-01-21 08:58:30 51°16.221 2°54.283 7.041714 3.091017 31.687099 4.409999
2003-01-21 08:58:36 51°16.221 2°54.283 6.678943 3.091438 31.691874 4.376289
2003-01-21 08:58:40 51°16.221 2°54.283 6.838448 3.079858 31.560603 4.376289
2003-01-21 08:58:46 51°16.221 2°54.283 6.879468 3.090912 31.687556 4.308871
2003-01-21 08:58:50 51°16.221 2°54.283 7.36424 3.089859 31.676444 4.409999
2003-01-21 08:58:55 51°16.221 2°54.283 7.36424 3.089859 31.676444 4.409999
2003-01-21 08:59:00 51°16.221 2°54.283 7.443141 3.091228 31.691137 4.376289
2003-01-21 08:59:06 51°16.221 2°54.283 6.757414 3.091333 31.691505 4.376289
2003-01-21 08:59:10 51°16.221 2°54.283 6.879271 3.091122 31.689944 4.34258
2003-01-21 08:59:16 51°16.221 2°54.283 7.67873 3.091228 31.691963 4.409999
2003-01-21 08:59:20 51°16.221 2°54.283 7.041075 3.091122 31.690769 4.34258
2003-01-21 08:59:26 51°16.221 2°54.283 7.041075 3.091122 31.690769 4.34258
2003-01-21 08:59:30 51°16.221 2°54.283 7.560484 3.091438 31.693525 4.34258
2003-01-21 08:59:36 51°16.221 2°54.282 6.882077 3.091122 31.689944 4.34258
2003-01-21 08:59:40 51°16.221 2°54.282 6.678301 3.091017 31.687924 4.308871
2003-01-21 08:59:45 51°16.221 2°54.282 7.161853 3.091122 31.690769 4.308871
2003-01-21 08:59:50 51°16.22 2°54.282 6.960102 3.091228 31.690312 4.308871
2003-01-21 08:59:54 51°16.221 2°54.282 6.960102 3.091228 31.690312 4.308871
2003-01-21 09:00:00 51°16.22 2°54.282 6.960298 3.091017 31.68875 4.308871
2003-01-21 09:00:06 51°16.22 2°54.282 7.241495 3.090912 31.687556 4.376289
2003-01-21 09:00:10 51°16.22 2°54.282 6.75845 3.091017 31.689576 4.308871
2003-01-21 09:00:16 51°16.22 2°54.282 7.040388 3.091017 31.690401 4.275161
2003-01-21 09:00:21 51°16.22 2°54.282 7.919996 3.091228 31.691963 4.34258
2003-01-21 09:00:26 51°16.22 2°54.282 7.919996 3.091228 31.691963 4.34258
2003-01-21 09:00:30 51°16.22 2°54.282 6.676029 3.091228 31.691963 4.308871
2003-01-21 09:00:36 51°16.22 2°54.282 6.918691 3.090806 31.687188 4.34258
2003-01-21 09:00:40 51°16.22 2°54.283 6.917854 3.091017 31.68875 4.308871
2003-01-21 09:00:44 51°16.22 2°54.283 7.359158 3.091017 31.689576 4.308871
2003-01-21 09:00:50 51°16.22 2°54.283 7.481727 3.091017 31.689576 4.308871
2003-01-21 09:00:56 51°16.22 2°54.283 7.481727 3.091017 31.689576 4.308871
2003-01-21 09:01:00 51°16.221 2°54.283 6.719523 3.091017 31.689576 4.376289
2003-01-21 09:01:04 51°16.221 2°54.283 6.637497 3.091228 31.693615 4.308871
2003-01-21 09:01:10 51°16.221 2°54.283 6.920068 3.090912 31.689207 4.34258
2003-01-21 09:01:16 51°16.221 2°54.283 6.919871 3.091333 31.695634 4.241452
2003-01-21 09:01:20 51°16.221 2°54.283 7.238655 3.091228 31.691963 4.34258
2003-01-21 09:01:26 51°16.221 2°54.283 7.238655 3.091228 31.691963 4.34258
2003-01-21 09:01:30 51°16.221 2°54.283 7.118955 3.087964 31.655783 4.34258
2003-01-21 09:01:36 51°16.221 2°54.283 6.716463 3.089122 31.669739 4.34258
2003-01-21 09:01:40 51°16.221 2°54.282 7.640847 3.089017 31.668545 4.376289
2003-01-21 09:01:46 51°16.221 2°54.282 6.999717 3.089543 31.672863 4.376289
2003-01-21 09:01:50 51°16.221 2°54.282 6.67756 3.090806 31.688839 4.376289
2003-01-21 09:01:54 51°16.221 2°54.282 6.67756 3.090806 31.688839 4.376289
2003-01-21 09:02:00 51°16.221 2°54.282 6.958627 3.091017 31.691227 4.376289
2003-01-21 09:02:06 51°16.221 2°54.282 6.999913 3.090806 31.688014 4.443708
2003-01-21 09:02:10 51°16.22 2°54.281 6.799373 3.089754 31.675251 4.34258
2003-01-21 09:02:15 51°16.22 2°54.281 7.038571 3.091228 31.692789 4.409999
2003-01-21 09:02:20 51°16.22 2°54.281 7.000454 3.089964 31.678463 4.409999
2003-01-21 09:02:26 51°16.22 2°54.281 7.000454 3.089964 31.678463 4.409999
2003-01-21 09:02:30 51°16.22 2°54.281 7.039651 3.089438 31.672495 4.443708
2003-01-21 09:02:35 51°16.22 2°54.281 6.798979 3.089964 31.677638 4.477418
2003-01-21 09:02:40 51°16.22 2°54.281 7.120769 3.09028 31.68287 4.376289
2003-01-21 09:02:46 51°16.22 2°54.281 7.240173 3.091438 31.696002 4.409999
2003-01-21 09:02:50 51°16.22 2°54.281 7.481288 3.09028 31.682045 4.409999
2003-01-21 09:02:54 51°16.22 2°54.281 7.481288 3.09028 31.682045 4.409999
2003-01-21 09:03:00 51°16.22 2°54.281 6.878976 3.091017 31.691227 4.376289
2003-01-21 09:03:06 51°16.22 2°54.281 6.838694 3.090175 31.682502 4.376289
2003-01-21 09:03:11 51°16.22 2°54.281 6.837611 3.089122 31.670564 4.477418
2003-01-21 09:03:14 51°16.22 2°54.281 6.759535 3.091228 31.693615 4.443708
2003-01-21 09:03:20 51°16.22 2°54.281 6.79755 3.090806 31.688839 4.409999
2003-01-21 09:03:25 51°16.219 2°54.281 6.79755 3.090806 31.688839 4.409999
2003-01-21 09:03:30 51°16.219 2°54.281 6.6372 3.088912 31.667351 4.409999
2003-01-21 09:03:34 51°16.219 2°54.281 7.08172 3.089648 31.676533 4.409999
2003-01-21 09:03:40 51°16.219 2°54.281 7.079266 3.060277 31.344526 4.443708
2003-01-21 09:03:46 51°16.219 2°54.281 7.08015 3.028697 30.984765 4.409999
2003-01-21 09:03:50 51°16.219 2°54.281 7.199531 3.090701 31.687645 4.443708
2003-01-21 09:03:56 51°16.219 2°54.281 7.199531 3.090701 31.687645 4.443708
2003-01-21 09:04:00 51°16.219 2°54.281 7.077352 3.090701 31.687645 4.443708
2003-01-21 09:04:04 51°16.219 2°54.281 6.755983 3.090912 31.690033 4.443708
2003-01-21 09:04:11 51°16.219 2°54.281 6.880551 3.090912 31.691685 4.477418
2003-01-21 09:04:16 51°16.219 2°54.281 6.636509 3.090912 31.69251 4.409999
2003-01-21 09:04:20 51°16.219 2°54.281 6.79893 3.090912 31.690859 4.376289
2003-01-21 09:04:24 51°16.219 2°54.281 6.79893 3.090912 31.690859 4.376289
2003-01-21 09:04:31 51°16.219 2°54.282 6.854997 3.090912 31.690033 4.409999
2003-01-21 09:04:36 51°16.219 2°54.281 7.120475 3.090912 31.690033 4.376289
2003-01-21 09:04:41 51°16.219 2°54.282 6.999029 3.090701 31.68682 4.376289
2003-01-21 09:04:45 51°16.218 2°54.282 6.999913 3.090912 31.689207 4.34258
2003-01-21 09:04:51 51°16.218 2°54.281 7.320743 3.090912 31.690033 4.34258
2003-01-21 09:04:56 51°16.218 2°54.281 7.320743 3.090912 31.690033 4.34258
2003-01-21 09:05:00 51°16.218 2°54.281 7.281669 3.090806 31.688014 4.34258
2003-01-21 09:05:04 51°16.218 2°54.281 7.15955 3.090806 31.688839 4.376289
2003-01-21 09:05:11 51°16.218 2°54.281 6.555612 3.090912 31.690033 4.409999
2003-01-21 09:05:15 51°16.218 2°54.281 6.918888 3.091017 31.692053 4.443708
2003-01-21 09:05:21 51°16.218 2°54.281 6.879271 3.090807 31.690491 4.477418
2003-01-21 09:05:25 51°16.218 2°54.281 6.879271 3.090807 31.690491 4.477418
2003-01-21 09:05:31 51°16.218 2°54.281 6.71977 3.091228 31.69444 4.544836
2003-01-21 09:05:36 51°16.218 2°54.281 6.717598 3.090701 31.687645 4.477418
2003-01-21 09:05:41 51°16.218 2°54.281 7.159844 3.090701 31.689297 4.477418
2003-01-21 09:05:45 51°16.218 2°54.281 7.079953 3.090701 31.688471 4.477418
2003-01-21 09:05:51 51°16.218 2°54.281 7.079659 3.090912 31.690033 4.544836
2003-01-21 09:05:56 51°16.218 2°54.281 7.079659 3.090912 31.690033 4.544836
2003-01-21 09:06:01 51°16.218 2°54.281 6.636212 3.090806 31.689665 4.544836
2003-01-21 09:06:05 51°16.218 2°54.281 6.797057 3.090912 31.690859 4.544836
2003-01-21 09:06:11 51°16.218 2°54.281 6.796712 3.090806 31.689665 4.477418
2003-01-21 09:06:16 51°16.218 2°54.281 7.160677 3.090701 31.689297 4.544836
2003-01-21 09:06:21 51°16.218 2°54.281 6.758154 3.090701 31.690123 4.578546
2003-01-21 09:06:25 51°16.218 2°54.281 6.758154 3.090701 31.690123 4.578546
2003-01-21 09:06:31 51°16.218 2°54.281 6.595727 3.091122 31.694072 4.443708
2003-01-21 09:06:35 51°16.218 2°54.281 7.001633 3.090701 31.690123 4.477418
2003-01-21 09:06:41 51°16.218 2°54.281 6.716315 3.090596 31.688103 4.511127
2003-01-21 09:06:45 51°16.218 2°54.281 6.637991 3.090807 31.691317 4.511127
2003-01-21 09:06:51 51°16.218 2°54.281 6.920855 3.090385 31.685715 4.511127
2003-01-21 09:06:55 51°16.218 2°54.281 6.920855 3.090385 31.685715 4.511127
2003-01-21 09:07:01 51°16.218 2°54.281 6.918494 3.090912 31.690033 4.578546
2003-01-21 09:07:06 51°16.218 2°54.282 6.958922 3.090701 31.688471 4.578546
2003-01-21 09:07:11 51°16.218 2°54.282 6.998783 3.090912 31.689207 4.578546
2003-01-21 09:07:15 51°16.218 2°54.282 6.878434 3.090806 31.688839 4.544836